Observation data for Panhandle on 11/11/2019      Previous  Date       Current Mesonet Observations  Soil Data  Daily Summary Page  Observations in Plain Language
KPA1 110600Z 34012KT 08/02 A299 RMK A01 T00750016  RH  066%=      5-min Rain = 0
KPA1 110601Z 34013KT 07/02 A299 RMK A01 T00740016  RH  067%=      5-min Rain = 0
KPA1 110602Z 34014KT 07/02 A299 RMK A01 T00740017  RH  067%=      5-min Rain = 0
KPA1 110603Z 34014KT 08/02 A299 RMK A01 T00750018  RH  067%=      5-min Rain = 0
KPA1 110604Z 34014KT 08/02 A299 RMK A01 T00750018  RH  067%=      5-min Rain = 0
KPA1 110605Z 34014KT 08/02 A2991 RMK A01 T00750018  RH  067%=      5-min Rain = 0
KPA1 110606Z 34016KT 08/02 A2991 RMK A01 T00750018  RH  067%=      5-min Rain = 0
KPA1 110607Z 34015KT 08/02 A2991 RMK A01 T00760018  RH  067%=      5-min Rain = 0
KPA1 110608Z 34013KT 08/02 A2991 RMK A01 T00760018  RH  067%=      5-min Rain = 0
KPA1 110609Z 34013KT 08/02 A2991 RMK A01 T00750019  RH  067%=      5-min Rain = 0
KPA1 110610Z 34015KT 08/02 A299 RMK A01 T00750019  RH  068%=      5-min Rain = 0
KPA1 110611Z 34014KT 08/02 A299 RMK A01 T00760019  RH  068%=      5-min Rain = 0
KPA1 110612Z 34013KT 08/02 A299 RMK A01 T00760019  RH  067%=      5-min Rain = 0
KPA1 110613Z 34015KT 08/02 A299 RMK A01 T00760019  RH  067%=      5-min Rain = 0
KPA1 110614Z 34014KT 08/02 A299 RMK A01 T00760019  RH  067%=      5-min Rain = 0
KPA1 110615Z 35014KT 08/02 A299 RMK A01 T00760019  RH  067%=      5-min Rain = 0
KPA1 110616Z 34014KT 08/02 A299 RMK A01 T00770019  RH  067%=      5-min Rain = 0
KPA1 110617Z 34013G19KT 08/02 A299 RMK A01 T00760018  RH  067%=      5-min Rain = 0
KPA1 110618Z 34014KT 08/02 A299 RMK A01 T00760018  RH  067%=      5-min Rain = 0
KPA1 110619Z 34016KT 08/02 A299 RMK A01 T00750018  RH  067%=      5-min Rain = 0
KPA1 110620Z 34014KT 07/02 A299 RMK A01 T00740018  RH  067%=      5-min Rain = 0
KPA1 110621Z 34014KT 07/02 A2991 RMK A01 T00730018  RH  068%=      5-min Rain = 0
KPA1 110622Z 33016KT 07/02 A2991 RMK A01 T00720018  RH  068%=      5-min Rain = 0
KPA1 110623Z 34014KT 07/02 A2991 RMK A01 T00710018  RH  069%=      5-min Rain = 0
KPA1 110624Z 33016KT 07/02 A2991 RMK A01 T00690017  RH  069%=      5-min Rain = 0
KPA1 110625Z 33015G20KT 07/02 A2991 RMK A01 T00690017  RH  069%=      5-min Rain = 0
KPA1 110626Z 33015KT 07/02 A2991 RMK A01 T00690017  RH  069%=      5-min Rain = 0
KPA1 110627Z 34016KT 07/02 A2991 RMK A01 T00680016  RH  069%=      5-min Rain = 0
KPA1 110628Z 33017KT 07/02 A2991 RMK A01 T00670015  RH  069%=      5-min Rain = 0
KPA1 110629Z 33014KT 07/01 A2991 RMK A01 T00660014  RH  070%=      5-min Rain = 0
KPA1 110630Z 34014KT 07/01 A2992 RMK A01 T00650014  RH  070%=      5-min Rain = 0
KPA1 110631Z 34016KT 06/01 A2992 RMK A01 T00630013  RH  070%=      5-min Rain = 0
KPA1 110632Z 34014KT 06/01 A2992 RMK A01 T00630013  RH  070%=      5-min Rain = 0
KPA1 110633Z 34015KT 06/01 A2992 RMK A01 T00630013  RH  071%=      5-min Rain = 0
KPA1 110634Z 34014KT 06/01 A2992 RMK A01 T00620013  RH  071%=      5-min Rain = 0
KPA1 110635Z 34014KT 06/01 A2992 RMK A01 T00610013  RH  071%=      5-min Rain = 0
KPA1 110636Z 35014KT 06/01 A2992 RMK A01 T00610012  RH  071%=      5-min Rain = 0
KPA1 110637Z 34014KT 06/01 A2993 RMK A01 T00610012  RH  071%=      5-min Rain = 0
KPA1 110638Z 34016KT 06/01 A2993 RMK A01 T00600012  RH  071%=      5-min Rain = 0
KPA1 110639Z 34014G19KT 06/01 A2993 RMK A01 T00600011  RH  071%=      5-min Rain = 0
KPA1 110640Z 34014KT 06/01 A2993 RMK A01 T00590011  RH  071%=      5-min Rain = 0
KPA1 110641Z 35014KT 06/01 A2993 RMK A01 T00590011  RH  071%=      5-min Rain = 0
KPA1 110642Z 34014KT 06/01 A2993 RMK A01 T00590011  RH  072%=      5-min Rain = 0
KPA1 110643Z 35014KT 06/01 A2993 RMK A01 T00580011  RH  072%=      5-min Rain = 0
KPA1 110644Z 34015KT 06/01 A2993 RMK A01 T00580011  RH  072%=      5-min Rain = 0
KPA1 110645Z 35015G20KT 06/01 A2993 RMK A01 T00580011  RH  072%=      5-min Rain = 0
KPA1 110646Z 35016KT 06/01 A2993 RMK A01 T00580011  RH  072%=      5-min Rain = 0
KPA1 110647Z 35017KT 06/01 A2993 RMK A01 T00580011  RH  072%=      5-min Rain = 0
KPA1 110648Z 35014KT 06/01 A2993 RMK A01 T00580011  RH  072%=      5-min Rain = 0
KPA1 110649Z 35016G21KT 06/01 A2993 RMK A01 T00580011  RH  072%=      5-min Rain = 0
KPA1 110650Z 35015KT 06/01 A2993 RMK A01 T00570012  RH  072%=      5-min Rain = 0
KPA1 110651Z 35017G22KT 06/01 A2993 RMK A01 T00570012  RH  073%=      5-min Rain = 0
KPA1 110652Z 35016KT 06/01 A2993 RMK A01 T00570012  RH  073%=      5-min Rain = 0
KPA1 110653Z 36015KT 06/01 A2993 RMK A01 T00570012  RH  073%=      5-min Rain = 0
KPA1 110654Z 35014G19KT 06/01 A2993 RMK A01 T00570012  RH  073%=      5-min Rain = 0
KPA1 110655Z 36017KT 06/01 A2994 RMK A01 T00560012  RH  073%=      5-min Rain = 0
KPA1 110656Z 35015KT 06/01 A2994 RMK A01 T00560012  RH  073%=      5-min Rain = 0
KPA1 110657Z 36017G23KT 06/01 A2994 RMK A01 T00560013  RH  074%=      5-min Rain = 0
KPA1 110658Z 36016KT 06/01 A2994 RMK A01 T00560013  RH  074%=      5-min Rain = 0
KPA1 110659Z 35015KT 06/01 A2993 RMK A01 T00560013  RH  074%=      5-min Rain = 0
KPA1 110700Z 36015KT 06/01 A2993 RMK A01 T00560013  RH  074%=      5-min Rain = 0
KPA1 110701Z 00017G22KT 06/01 A2993 RMK A01 T00550013  RH  074%=      5-min Rain = 0
KPA1 110702Z 36018KT 06/01 A2994 RMK A01 T00550014  RH  074%=      5-min Rain = 0
KPA1 110703Z 36019KT 06/01 A2994 RMK A01 T00560014  RH  074%=      5-min Rain = 0
KPA1 110704Z 36015KT 06/01 A2994 RMK A01 T00560014  RH  074%=      5-min Rain = 0
KPA1 110705Z 00019KT 06/01 A2994 RMK A01 T00560014  RH  074%=      5-min Rain = 0
KPA1 110706Z 00017KT 06/01 A2993 RMK A01 T00560014  RH  074%=      5-min Rain = 0
KPA1 110707Z 36017KT 06/01 A2994 RMK A01 T00560014  RH  075%=      5-min Rain = 0
KPA1 110708Z 36016KT 06/01 A2994 RMK A01 T00550014  RH  075%=      5-min Rain = 0
KPA1 110709Z 36018KT 06/01 A2994 RMK A01 T00550014  RH  075%=      5-min Rain = 0
KPA1 110710Z 00016G21KT 06/01 A2994 RMK A01 T00550014  RH  075%=      5-min Rain = 0
KPA1 110711Z 00018KT 06/01 A2994 RMK A01 T00550014  RH  075%=      5-min Rain = 0
KPA1 110712Z 36018KT 06/01 A2994 RMK A01 T00550014  RH  075%=      5-min Rain = 0
KPA1 110713Z 36017KT 05/01 A2994 RMK A01 T00540014  RH  075%=      5-min Rain = 0
KPA1 110714Z 36018KT 05/01 A2994 RMK A01 T00540013  RH  075%=      5-min Rain = 0
KPA1 110715Z 36018KT 05/01 A2994 RMK A01 T00540014  RH  075%=      5-min Rain = 0
KPA1 110716Z 35019KT 05/01 A2994 RMK A01 T00540014  RH  075%=      5-min Rain = 0
KPA1 110717Z 36020KT 05/01 A2994 RMK A01 T00540013  RH  075%=      5-min Rain = 0
KPA1 110718Z 35018KT 05/01 A2994 RMK A01 T00530013  RH  075%=      5-min Rain = 0
KPA1 110719Z 36017G22KT 05/01 A2994 RMK A01 T00530013  RH  076%=      5-min Rain = 0
KPA1 110720Z 36018KT 05/01 A2994 RMK A01 T00520013  RH  076%=      5-min Rain = 0
KPA1 110721Z 36018G23KT 05/01 A2994 RMK A01 T00520013  RH  076%=      5-min Rain = 0
KPA1 110722Z 36020KT 05/01 A2994 RMK A01 T00520013  RH  076%=      5-min Rain = 0
KPA1 110723Z 36018G23KT 05/01 A2994 RMK A01 T00520013  RH  076%=      5-min Rain = 0
KPA1 110724Z 36019KT 05/01 A2994 RMK A01 T00520013  RH  076%=      5-min Rain = 0
KPA1 110725Z 36018KT 05/01 A2994 RMK A01 T00520013  RH  076%=      5-min Rain = 0
KPA1 110726Z 36017KT 05/01 A2995 RMK A01 T00520013  RH  076%=      5-min Rain = 0
KPA1 110727Z 36018KT 05/01 A2995 RMK A01 T00510013  RH  076%=      5-min Rain = 0
KPA1 110728Z 00019KT 05/01 A2995 RMK A01 T00510013  RH  076%=      5-min Rain = 0
KPA1 110729Z 00019G24KT 05/01 A2995 RMK A01 T00510013  RH  076%=      5-min Rain = 0
KPA1 110730Z 36018KT 05/01 A2995 RMK A01 T00510013  RH  077%=      5-min Rain = 0
KPA1 110731Z 36015KT 05/01 A2995 RMK A01 T00510013  RH  077%=      5-min Rain = 0
KPA1 110732Z 00016KT 05/01 A2995 RMK A01 T00500013  RH  077%=      5-min Rain = 0
KPA1 110733Z 00018KT 05/01 A2995 RMK A01 T00500013  RH  077%=      5-min Rain = 0
KPA1 110734Z 36019KT 05/01 A2995 RMK A01 T00500013  RH  077%=      5-min Rain = 0
KPA1 110735Z 00018KT 05/01 A2995 RMK A01 T00490013  RH  077%=      5-min Rain = 0
KPA1 110736Z 36017KT 05/01 A2995 RMK A01 T00500013  RH  077%=      5-min Rain = 0
KPA1 110737Z 36019KT 05/01 A2995 RMK A01 T00500013  RH  077%=      5-min Rain = 0
KPA1 110738Z 36019KT 05/01 A2995 RMK A01 T00500013  RH  077%=      5-min Rain = 0
KPA1 110739Z 00016G22KT 05/01 A2995 RMK A01 T00490012  RH  077%=      5-min Rain = 0
KPA1 110740Z 01021KT 05/01 A2995 RMK A01 T00490012  RH  077%=      5-min Rain = 0
KPA1 110741Z 00020G25KT 05/01 A2996 RMK A01 T00490012  RH  077%=      5-min Rain = 0
KPA1 110742Z 00018G23KT 05/01 A2996 RMK A01 T00490012  RH  077%=      5-min Rain = 0
KPA1 110743Z 36019KT 05/01 A2995 RMK A01 T00490012  RH  077%=      5-min Rain = 0
KPA1 110744Z 00019G24KT 05/01 A2996 RMK A01 T00490012  RH  077%=      5-min Rain = 0
KPA1 110745Z 00020KT 05/01 A2996 RMK A01 T00480012  RH  077%=      5-min Rain = 0
KPA1 110746Z 00017G25KT 05/01 A2996 RMK A01 T00480012  RH  077%=      5-min Rain = 0
KPA1 110747Z 00021G26KT 05/01 A2996 RMK A01 T00480012  RH  077%=      5-min Rain = 0
KPA1 110748Z 00019G25KT 05/01 A2996 RMK A01 T00480012  RH  077%=      5-min Rain = 0
KPA1 110749Z 00021KT 05/01 A2996 RMK A01 T00480012  RH  077%=      5-min Rain = 0
KPA1 110750Z 00020G25KT 05/01 A2996 RMK A01 T00480012  RH  077%=      5-min Rain = 0
KPA1 110751Z 00020KT 05/01 A2996 RMK A01 T00480012  RH  077%=      5-min Rain = 0
KPA1 110752Z 00020G25KT 05/01 A2996 RMK A01 T00480012  RH  077%=      5-min Rain = 0
KPA1 110753Z 36023KT 05/01 A2996 RMK A01 T00490013  RH  077%=      5-min Rain = 0
KPA1 110754Z 00024KT 05/01 A2996 RMK A01 T00490012  RH  077%=      5-min Rain = 0
KPA1 110755Z 00018G25KT 05/01 A2996 RMK A01 T00490013  RH  077%=      5-min Rain = 0
KPA1 110756Z 36019G25KT 05/01 A2996 RMK A01 T00490013  RH  078%=      5-min Rain = 0
KPA1 110757Z 36020KT 05/01 A2996 RMK A01 T00490013  RH  078%=      5-min Rain = 0
KPA1 110758Z 00021G26KT 05/01 A2996 RMK A01 T00490013  RH  078%=      5-min Rain = 0
KPA1 110759Z 00019G27KT 05/01 A2996 RMK A01 T00500014  RH  078%=      5-min Rain = 0
KPA1 110800Z 00021KT 05/01 A2997 RMK A01 T00500014  RH  078%=      5-min Rain = 0
KPA1 110801Z 00019G24KT 05/01 A2996 RMK A01 T00500014  RH  077%=      5-min Rain = 0
KPA1 110802Z 36022KT 05/01 A2997 RMK A01 T00500014  RH  077%=      5-min Rain = 0
KPA1 110803Z 00021G26KT 05/01 A2997 RMK A01 T00500014  RH  077%=      5-min Rain = 0
KPA1 110804Z 00020KT 05/01 A2997 RMK A01 T00500014  RH  077%=      5-min Rain = 0
KPA1 110805Z 00021G26KT 05/01 A2997 RMK A01 T00500014  RH  077%=      5-min Rain = 0
KPA1 110806Z 01021G26KT 05/01 A2997 RMK A01 T00500014  RH  077%=      5-min Rain = 0
KPA1 110807Z 36022G29KT 05/01 A2997 RMK A01 T00500014  RH  077%=      5-min Rain = 0
KPA1 110808Z 00021G27KT 05/01 A2997 RMK A01 T00500014  RH  077%=      5-min Rain = 0
KPA1 110809Z 01021KT 05/01 A2997 RMK A01 T00500014  RH  077%=      5-min Rain = 0
KPA1 110810Z 00018KT 05/01 A2997 RMK A01 T00500014  RH  078%=      5-min Rain = 0
KPA1 110811Z 00017G22KT 05/02 A2998 RMK A01 T00500015  RH  078%=      5-min Rain = 0
KPA1 110812Z 00024G29KT 05/02 A2998 RMK A01 T00500015  RH  078%=      5-min Rain = 0
KPA1 110813Z 00020G25KT 05/01 A2998 RMK A01 T00500014  RH  077%=      5-min Rain = 0
KPA1 110814Z 01020G26KT 05/01 A2998 RMK A01 T00500014  RH  078%=      5-min Rain = 0
KPA1 110815Z 36020KT 05/02 A2998 RMK A01 T00500015  RH  078%=      5-min Rain = 0
KPA1 110816Z 00023KT 05/02 A2998 RMK A01 T00500015  RH  078%=      5-min Rain = 0
KPA1 110817Z 00023G30KT 05/01 A2998 RMK A01 T00500014  RH  078%=      5-min Rain = 0
KPA1 110818Z 00023KT 05/01 A2998 RMK A01 T00500014  RH  078%=      5-min Rain = 0
KPA1 110819Z 01023G28KT 05/01 A2998 RMK A01 T00500014  RH  078%=      5-min Rain = 0
KPA1 110820Z 01022G30KT 05/01 A2998 RMK A01 T00500014  RH  078%=      5-min Rain = 0
KPA1 110821Z 00022G27KT 05/01 A2998 RMK A01 T00500014  RH  078%=      5-min Rain = 0
KPA1 110822Z 01026KT 05/01 A2998 RMK A01 T00500014  RH  078%=      5-min Rain = 0
KPA1 110823Z 01023G29KT 05/01 A2998 RMK A01 T00500014  RH  078%=      5-min Rain = 0
KPA1 110824Z 00020KT 05/01 A2998 RMK A01 T00490014  RH  078%=      5-min Rain = 0
KPA1 110825Z 00021G28KT 05/01 A2998 RMK A01 T00490014  RH  078%=      5-min Rain = 0
KPA1 110826Z 01023G29KT 05/01 A2998 RMK A01 T00490014  RH  078%=      5-min Rain = 0
KPA1 110827Z 01023G30KT 05/01 A2999 RMK A01 T00490014  RH  078%=      5-min Rain = 0
KPA1 110828Z 00021G27KT 05/01 A2999 RMK A01 T00490014  RH  078%=      5-min Rain = 0
KPA1 110829Z 01023G31KT 05/01 A2999 RMK A01 T00490013  RH  078%=      5-min Rain = 0
KPA1 110830Z 01025G31KT 05/01 A2999 RMK A01 T00480013  RH  078%=      5-min Rain = 0
KPA1 110831Z 00027G33KT 05/01 A2999 RMK A01 T00490013  RH  078%=      5-min Rain = 0
KPA1 110832Z 00025KT 05/01 A2999 RMK A01 T00480012  RH  078%=      5-min Rain = 0
KPA1 110833Z 01023KT 05/01 A2999 RMK A01 T00480012  RH  078%=      5-min Rain = 0
KPA1 110834Z 00025KT 05/01 A2999 RMK A01 T00480012  RH  078%=      5-min Rain = 0
KPA1 110835Z 01025G30KT 05/01 A2999 RMK A01 T00480012  RH  078%=      5-min Rain = 0
KPA1 110836Z 01025G31KT 05/01 A2999 RMK A01 T00470011  RH  078%=      5-min Rain = 0
KPA1 110837Z 01025G30KT 05/01 A2999 RMK A01 T00470011  RH  077%=      5-min Rain = 0
KPA1 110838Z 01027G34KT 05/01 A2999 RMK A01 T00470011  RH  078%=      5-min Rain = 0
KPA1 110839Z 00023G31KT 05/01 A2999 RMK A01 T00470011  RH  078%=      5-min Rain = 0
KPA1 110840Z 00022G28KT 05/01 A2999 RMK A01 T00470012  RH  078%=      5-min Rain = 0
KPA1 110841Z 00023G28KT 05/01 A2999 RMK A01 T00470011  RH  078%=      5-min Rain = 0
KPA1 110842Z 01023G30KT 05/01 A2999 RMK A01 T00470012  RH  078%=      5-min Rain = 0
KPA1 110843Z 01024G30KT 05/01 A2999 RMK A01 T00470011  RH  078%=      5-min Rain = 0
KPA1 110844Z 01026G31KT 05/01 A2999 RMK A01 T00470011  RH  078%=      5-min Rain = 0
KPA1 110845Z 01026G31KT 05/01 A2999 RMK A01 T00460010  RH  077%=      5-min Rain = 0
KPA1 110846Z 01024G35KT 05/01 A2999 RMK A01 T00470011  RH  078%=      5-min Rain = 0
KPA1 110847Z 00027G33KT 05/01 A30 RMK A01 T00460011  RH  078%=      5-min Rain = 0
KPA1 110848Z 01024KT 05/01 A30 RMK A01 T00460010  RH  078%=      5-min Rain = 0
KPA1 110849Z 00023G29KT 05/01 A30 RMK A01 T00460010  RH  078%=      5-min Rain = 0
KPA1 110850Z 01022G29KT 05/01 A30 RMK A01 T00460011  RH  078%=      5-min Rain = 0
KPA1 110851Z 01018KT 05/01 A30 RMK A01 T00460010  RH  078%=      5-min Rain = 0
KPA1 110852Z 01025G32KT 05/01 A3001 RMK A01 T00460010  RH  078%=      5-min Rain = 0
KPA1 110853Z 00026G32KT 05/01 A3001 RMK A01 T00450010  RH  078%=      5-min Rain = 0
KPA1 110854Z 01026G35KT 05/01 A3001 RMK A01 T00450010  RH  078%=      5-min Rain = 0
KPA1 110855Z 01024G32KT 05/01 A3001 RMK A01 T00450009  RH  077%=      5-min Rain = 0
KPA1 110856Z 00025G32KT 05/01 A3001 RMK A01 T00450009  RH  077%=      5-min Rain = 0
KPA1 110857Z 01023G29KT 04/01 A3001 RMK A01 T00440008  RH  077%=      5-min Rain = 0
KPA1 110858Z 01029KT 04/01 A3002 RMK A01 T00440008  RH  077%=      5-min Rain = 0
KPA1 110859Z 00022KT 04/01 A3002 RMK A01 T00440008  RH  077%=      5-min Rain = 0
KPA1 110900Z 00023G28KT 04/01 A3002 RMK A01 T00430008  RH  078%=      5-min Rain = 0
KPA1 110901Z 00026G33KT 04/01 A3002 RMK A01 T00430007  RH  078%=      5-min Rain = 0
KPA1 110902Z 01025G31KT 04/01 A3002 RMK A01 T00420006  RH  077%=      5-min Rain = 0
KPA1 110903Z 00026G31KT 04/01 A3002 RMK A01 T00410005  RH  077%=      5-min Rain = 0
KPA1 110904Z 01025G30KT 04/01 A3002 RMK A01 T00400005  RH  078%=      5-min Rain = 0
KPA1 110905Z 01024G31KT 04/01 A3003 RMK A01 T00400005  RH  078%=      5-min Rain = 0
KPA1 110906Z 01027KT 04/01 A3003 RMK A01 T00400005  RH  078%=      5-min Rain = 0
KPA1 110907Z 01022G29KT 04/00 A3003 RMK A01 T00390004  RH  078%=      5-min Rain = 0
KPA1 110908Z 01018G24KT 04/00 A3003 RMK A01 T00390004  RH  078%=      5-min Rain = 0
KPA1 110909Z 01021G27KT 04/01 A3003 RMK A01 T00390005  RH  078%=      5-min Rain = 0
KPA1 110910Z 35022G29KT 04/01 A3003 RMK A01 T00390005  RH  079%=      5-min Rain = 0
KPA1 110911Z 36024KT 04/00 A3003 RMK A01 T00380004  RH  078%=      5-min Rain = 0
KPA1 110912Z 00020KT 04/00 A3003 RMK A01 T00380003  RH  078%=      5-min Rain = 0
KPA1 110913Z 36018KT 04/00 A3003 RMK A01 T00370003  RH  078%=      5-min Rain = 0
KPA1 110914Z 00020G25KT 04/00 A3003 RMK A01 T00370003  RH  078%=      5-min Rain = 0
KPA1 110915Z 36020G26KT 04/00 A3003 RMK A01 T00360002  RH  078%=      5-min Rain = 0
KPA1 110916Z 36024G29KT 04/00 A3004 RMK A01 T00350001  RH  078%=      5-min Rain = 0
KPA1 110917Z 36026G34KT 03/M00 A3004 RMK A01 T00341001  RH  078%=      5-min Rain = 0
KPA1 110918Z 00028G35KT 03/M00 A3004 RMK A01 T00321002  RH  078%=      5-min Rain = 0
KPA1 110919Z 00025G31KT 03/M00 A3004 RMK A01 T00311002  RH  079%=      5-min Rain = 0
KPA1 110920Z 00027G34KT 03/M00 A3004 RMK A01 T00301002  RH  079%=      5-min Rain = 0
KPA1 110921Z 36020G25KT 03/M00 A3004 RMK A01 T00291003  RH  079%=      5-min Rain = 0
KPA1 110922Z 36022G27KT 03/M00 A3004 RMK A01 T00291002  RH  080%=      5-min Rain = 0
KPA1 110923Z 36025G30KT 03/M00 A3004 RMK A01 T00291003  RH  080%=      5-min Rain = 0
KPA1 110924Z 35026KT 03/M00 A3004 RMK A01 T00281004  RH  080%=      5-min Rain = 0
KPA1 110925Z 00027G34KT 03/M00 A3005 RMK A01 T00271004  RH  080%=      5-min Rain = 0
KPA1 110926Z 36026G35KT 03/M01 A3004 RMK A01 T00271005  RH  080%=      5-min Rain = 0
KPA1 110927Z 36028G36KT 03/M01 A3005 RMK A01 T00261006  RH  080%=      5-min Rain = 0
KPA1 110928Z 00027G34KT 03/M01 A3005 RMK A01 T00251006  RH  080%=      5-min Rain = 0
KPA1 110929Z 36028G36KT 03/M01 A3005 RMK A01 T00251006  RH  080%=      5-min Rain = 0
KPA1 110930Z 00026G35KT 03/M01 A3005 RMK A01 T00251006  RH  080%=      5-min Rain = 0
KPA1 110931Z 01026G32KT 02/M01 A3005 RMK A01 T00241006  RH  081%=      5-min Rain = 0
KPA1 110932Z 00024G31KT 02/M01 A3005 RMK A01 T00241006  RH  081%=      5-min Rain = 0
KPA1 110933Z 36023G34KT 02/M01 A3005 RMK A01 T00241005  RH  081%=      5-min Rain = 0
KPA1 110934Z 00030G36KT 02/M01 A3006 RMK A01 T00231006  RH  081%=      5-min Rain = 0
KPA1 110935Z 01024G34KT 02/M01 A3006 RMK A01 T00241005  RH  081%=      5-min Rain = 0
KPA1 110936Z 00024G30KT 02/M01 A3006 RMK A01 T00241005  RH  081%=      5-min Rain = 0
KPA1 110937Z 36029KT 02/M01 A3006 RMK A01 T00231006  RH  081%=      5-min Rain = 0
KPA1 110938Z 00026G33KT 02/M01 A3006 RMK A01 T00231006  RH  082%=      5-min Rain = 0
KPA1 110939Z 01029KT 02/M01 A3006 RMK A01 T00221006  RH  082%=      5-min Rain = 0
KPA1 110940Z 36024G29KT 02/M01 A3006 RMK A01 T00221006  RH  082%=      5-min Rain = 0
KPA1 110941Z 00023G32KT 02/M01 A3006 RMK A01 T00221005  RH  082%=      5-min Rain = 0
KPA1 110942Z 00024G30KT 02/M01 A3006 RMK A01 T00221006  RH  082%=      5-min Rain = 0
KPA1 110943Z 01023G28KT 02/M01 A3006 RMK A01 T00221006  RH  082%=      5-min Rain = 0
KPA1 110944Z 01023G33KT 02/M01 A3006 RMK A01 T00221006  RH  082%=      5-min Rain = 0
KPA1 110945Z 36026G32KT 02/M01 A3006 RMK A01 T00211006  RH  082%=      5-min Rain = 0
KPA1 110946Z 36021G29KT 02/M01 A3007 RMK A01 T00211007  RH  082%=      5-min Rain = 0
KPA1 110947Z 36028G35KT 02/M01 A3007 RMK A01 T00211007  RH  082%=      5-min Rain = 0
KPA1 110948Z 36030G38KT 02/M01 A3007 RMK A01 T00191009  RH  081%=      5-min Rain = 0
KPA1 110949Z 36032KT 02/M01 A3007 RMK A01 T00161012  RH  082%=      5-min Rain = 0
KPA1 110950Z 35028KT 01/M01 A3007 RMK A01 T00141012  RH  083%=      5-min Rain = 0
KPA1 110951Z 36027G35KT 01/M01 A3007 RMK A01 T00121013  RH  083%=      5-min Rain = 0
KPA1 110952Z 35030G35KT 01/M01 A3007 RMK A01 T00121013  RH  084%=      5-min Rain = 0
KPA1 110953Z 00025G32KT 01/M01 A3007 RMK A01 T00111013  RH  084%=      5-min Rain = 0
KPA1 110954Z 00024G29KT 01/M01 A3007 RMK A01 T00111013  RH  084%=      5-min Rain = 0
KPA1 110955Z 36028G33KT 01/M01 A3007 RMK A01 T00111013  RH  085%=      5-min Rain = 0
KPA1 110956Z 36032G40KT 01/M01 A3007 RMK A01 T00101014  RH  084%=      5-min Rain = 0
KPA1 110957Z 00031G39KT 01/M01 A3008 RMK A01 T00091014  RH  085%=      5-min Rain = 0
KPA1 110958Z 00030G37KT 01/M01 A3008 RMK A01 T00081013  RH  086%=      5-min Rain = 0
KPA1 110959Z 00027G33KT 01/M01 A3008 RMK A01 T00081012  RH  086%=      5-min Rain = 0
KPA1 111000Z 35022G29KT 01/M01 A3008 RMK A01 T00081012  RH  087%=      5-min Rain = 0
KPA1 111001Z 36028G33KT 01/M01 A3008 RMK A01 T00081012  RH  086%=      5-min Rain = 0
KPA1 111002Z 00030KT 01/M01 A3008 RMK A01 T00081013  RH  086%=      5-min Rain = 0
KPA1 111003Z 36030G38KT 01/M02 A3009 RMK A01 T00061015  RH  086%=      5-min Rain = 0
KPA1 111004Z 00029KT 01/M02 A3009 RMK A01 T00051017  RH  086%=      5-min Rain = 0
KPA1 111005Z 00027G32KT 00/M02 A3009 RMK A01 T00041018  RH  086%=      5-min Rain = 0
KPA1 111006Z 35029G37KT 00/M02 A3009 RMK A01 T00031018  RH  086%=      5-min Rain = 0
KPA1 111007Z 36030KT 00/M02 A301 RMK A01 T00021019  RH  086%=      5-min Rain = 0
KPA1 111008Z 36028G35KT 00/M02 A301 RMK A01 T00011019  RH  087%=      5-min Rain = 0
KPA1 111009Z 36024KT 00/M02 A301 RMK A01 T00011019  RH  087%=      5-min Rain = 0
KPA1 111010Z 36024G31KT 00/02 A301 RMK A01 T00000-19  RH  087%=      5-min Rain = 0
KPA1 111011Z 35023G30KT 00/02 A301 RMK A01 T00-00-19  RH  087%=      5-min Rain = 0
KPA1 111012Z 35023G28KT 00/02 A301 RMK A01 T00-00-20  RH  087%=      5-min Rain = 0
KPA1 111013Z 36027G34KT M00/M02 A301 RMK A01 T10021022  RH  086%=      5-min Rain = 0
KPA1 111014Z 00031G40KT M00/M02 A3011 RMK A01 T10031024  RH  086%=      5-min Rain = 0
KPA1 111015Z 36025G30KT M00/M03 A3011 RMK A01 T10041025  RH  086%=      5-min Rain = 0
KPA1 111016Z 35031KT M01/M03 A3011 RMK A01 T10051025  RH  086%=      5-min Rain = 0
KPA1 111017Z 35030G35KT M01/M03 A3011 RMK A01 T10061027  RH  086%=      5-min Rain = 0
KPA1 111018Z 00027G35KT M01/M03 A3011 RMK A01 T10071027  RH  086%=      5-min Rain = 0
KPA1 111019Z 00027G35KT M01/M03 A3011 RMK A01 T10071027  RH  087%=      5-min Rain = 0
KPA1 111020Z 35024G31KT M01/M03 A3011 RMK A01 T10081027  RH  087%=      5-min Rain = 0
KPA1 111021Z 36025G32KT M01/M03 A3012 RMK A01 T10091028  RH  087%=      5-min Rain = 0
KPA1 111022Z 36028KT M01/M03 A3012 RMK A01 T10091028  RH  087%=      5-min Rain = 0
KPA1 111023Z 36026G31KT M01/M03 A3012 RMK A01 T10091029  RH  087%=      5-min Rain = 0
KPA1 111024Z 00026G34KT M01/M03 A3012 RMK A01 T10091028  RH  087%=      5-min Rain = 0
KPA1 111025Z 36024G36KT M01/M03 A3012 RMK A01 T10091028  RH  087%=      5-min Rain = 0
KPA1 111026Z 36031G36KT M01/M03 A3013 RMK A01 T10101029  RH  087%=      5-min Rain = 0
KPA1 111027Z 36030KT M01/M03 A3013 RMK A01 T10101029  RH  087%=      5-min Rain = 0
KPA1 111028Z 35031G36KT M01/M03 A3013 RMK A01 T10111030  RH  087%=      5-min Rain = 0
KPA1 111029Z 35033G39KT M01/M03 A3013 RMK A01 T10111030  RH  087%=      5-min Rain = 0
KPA1 111030Z 00028G34KT M01/M03 A3013 RMK A01 T10111031  RH  087%=      5-min Rain = 0
KPA1 111031Z 36023G33KT M01/M03 A3013 RMK A01 T10121031  RH  087%=      5-min Rain = 0
KPA1 111032Z 36025G30KT M01/M03 A3013 RMK A01 T10121030  RH  087%=      5-min Rain = 0
KPA1 111033Z 00026G33KT M01/M03 A3013 RMK A01 T10111030  RH  087%=      5-min Rain = 0
KPA1 111034Z 36029G35KT M01/M03 A3013 RMK A01 T10111030  RH  087%=      5-min Rain = 0
KPA1 111035Z 36027G32KT M01/M03 A3013 RMK A01 T10121030  RH  088%=      5-min Rain = 0
KPA1 111036Z 00028G36KT M01/M03 A3014 RMK A01 T10121030  RH  088%=      5-min Rain = 0
KPA1 111037Z 36029G34KT M01/M03 A3014 RMK A01 T10131030  RH  088%=      5-min Rain = 0
KPA1 111038Z 00028G33KT M01/M03 A3014 RMK A01 T10131030  RH  088%=      5-min Rain = 0
KPA1 111039Z 36028G33KT M01/M03 A3014 RMK A01 T10131030  RH  089%=      5-min Rain = 0
KPA1 111040Z 35030G38KT M01/M03 A3014 RMK A01 T10131029  RH  089%=      5-min Rain = 0
KPA1 111041Z 35030G40KT M01/M03 A3014 RMK A01 T10141029  RH  089%=      5-min Rain = 0
KPA1 111042Z 35025G30KT M01/M03 A3014 RMK A01 T10141029  RH  089%=      5-min Rain = 0
KPA1 111043Z 35021KT M01/M03 A3014 RMK A01 T10141029  RH  089%=      5-min Rain = 0
KPA1 111044Z 35026G32KT M01/M03 A3015 RMK A01 T10131028  RH  090%=      5-min Rain = 0
KPA1 111045Z 35031G36KT M01/M03 A3015 RMK A01 T10131029  RH  089%=      5-min Rain = 0
KPA1 111046Z 36028G35KT M01/M03 A3015 RMK A01 T10141030  RH  089%=      5-min Rain = 0
KPA1 111047Z 35032G37KT M01/M03 A3015 RMK A01 T10141030  RH  089%=      5-min Rain = 0
KPA1 111048Z 35028G38KT M01/M03 A3015 RMK A01 T10141031  RH  089%=      5-min Rain = 0
KPA1 111049Z 36024G30KT M02/M03 A3015 RMK A01 T10151031  RH  089%=      5-min Rain = 0
KPA1 111050Z 36026G34KT M02/M03 A3015 RMK A01 T10151031  RH  089%=      5-min Rain = 0
KPA1 111051Z 00027G34KT M02/M03 A3015 RMK A01 T10151031  RH  089%=      5-min Rain = 0
KPA1 111052Z 00029G36KT M02/M03 A3016 RMK A01 T10161031  RH  089%=      5-min Rain = 0
KPA1 111053Z 36029KT M02/M03 A3016 RMK A01 T10151031  RH  089%=      5-min Rain = 0
KPA1 111054Z 35028G33KT M02/M03 A3016 RMK A01 T10161031  RH  089%=      5-min Rain = 0
KPA1 111055Z 35025KT M02/M03 A3016 RMK A01 T10171032  RH  090%=      5-min Rain = 0
KPA1 111056Z 01027KT M02/M03 A3016 RMK A01 T10171031  RH  090%=      5-min Rain = 0
KPA1 111057Z 00022G29KT M02/M03 A3016 RMK A01 T10171031  RH  090%=      5-min Rain = 0
KPA1 111058Z 36030KT M02/M03 A3016 RMK A01 T10161030  RH  090%=      5-min Rain = 0
KPA1 111059Z 35029G34KT M02/M03 A3017 RMK A01 T10171031  RH  090%=      5-min Rain = 0
KPA1 111100Z 36031G38KT M02/M03 A3017 RMK A01 T10171032  RH  090%=      5-min Rain = 0
KPA1 111101Z 01028KT M02/M03 A3017 RMK A01 T10181033  RH  089%=      5-min Rain = 0
KPA1 111102Z 36030G35KT M02/M03 A3017 RMK A01 T10181033  RH  090%=      5-min Rain = 0
KPA1 111103Z 36029G34KT M02/M03 A3017 RMK A01 T10171033  RH  089%=      5-min Rain = 0
KPA1 111104Z 00024G31KT M02/M03 A3017 RMK A01 T10181033  RH  089%=      5-min Rain = 0
KPA1 111105Z 36026G33KT M02/M03 A3017 RMK A01 T10181033  RH  089%=      5-min Rain = 0
KPA1 111106Z 35028G37KT M02/M03 A3017 RMK A01 T10181034  RH  089%=      5-min Rain = 0
KPA1 111107Z 36029G38KT M02/M04 A3017 RMK A01 T10181035  RH  088%=      5-min Rain = 0
KPA1 111108Z 00027KT M02/M04 A3017 RMK A01 T10181035  RH  088%=      5-min Rain = 0
KPA1 111109Z 36031G36KT M02/M04 A3017 RMK A01 T10181036  RH  088%=      5-min Rain = 0
KPA1 111110Z 36033G38KT M02/M04 A3017 RMK A01 T10191037  RH  087%=      5-min Rain = 0
KPA1 111111Z 00032KT M02/M04 A3017 RMK A01 T10201038  RH  087%=      5-min Rain = 0
KPA1 111112Z 00029G36KT M02/M04 A3017 RMK A01 T10191037  RH  088%=      5-min Rain = 0
KPA1 111113Z 00032G38KT M02/M04 A3017 RMK A01 T10191037  RH  088%=      5-min Rain = 0
KPA1 111114Z 00033G46KT M02/M04 A3017 RMK A01 T10201038  RH  088%=      5-min Rain = 0
KPA1 111115Z 36030G38KT M02/M04 A3017 RMK A01 T10201038  RH  088%=      5-min Rain = 0
KPA1 111116Z 00030G38KT M02/M04 A3017 RMK A01 T10201037  RH  088%=      5-min Rain = 0
KPA1 111117Z 36032G39KT M02/M04 A3017 RMK A01 T10201037  RH  088%=      5-min Rain = 0
KPA1 111118Z 00031G37KT M02/M04 A3017 RMK A01 T10211038  RH  088%=      5-min Rain = 0
KPA1 111119Z 00029G35KT M02/M04 A3017 RMK A01 T10211038  RH  088%=      5-min Rain = 0
KPA1 111120Z 00031G39KT M02/M04 A3017 RMK A01 T10201037  RH  088%=      5-min Rain = 0
KPA1 111121Z 00030G35KT M02/M04 A3017 RMK A01 T10211037  RH  089%=      5-min Rain = 0
KPA1 111122Z 36026G31KT M02/M04 A3017 RMK A01 T10211037  RH  089%=      5-min Rain = 0
KPA1 111123Z 36030G38KT M02/M04 A3017 RMK A01 T10211037  RH  089%=      5-min Rain = 0
KPA1 111124Z 00026G36KT M02/M04 A3017 RMK A01 T10211037  RH  089%=      5-min Rain = 0
KPA1 111125Z 00022G27KT M02/M04 A3017 RMK A01 T10211037  RH  089%=      5-min Rain = 0
KPA1 111126Z 00025G35KT M02/M04 A3017 RMK A01 T10201036  RH  089%=      5-min Rain = 0
KPA1 111127Z 01030G35KT M02/M04 A3018 RMK A01 T10201036  RH  089%=      5-min Rain = 0
KPA1 111128Z 00034G39KT M02/M04 A3018 RMK A01 T10211036  RH  089%=      5-min Rain = 0
KPA1 111129Z 00028G35KT M02/M04 A3018 RMK A01 T10211037  RH  089%=      5-min Rain = 0
KPA1 111130Z 00029G37KT M02/M04 A3018 RMK A01 T10211037  RH  089%=      5-min Rain = 0
KPA1 111131Z 00031KT M02/M04 A3018 RMK A01 T10211037  RH  089%=      5-min Rain = 0
KPA1 111132Z 36030G36KT M02/M04 A3018 RMK A01 T10211036  RH  089%=      5-min Rain = 0
KPA1 111133Z 01022G31KT M02/M04 A3018 RMK A01 T10211036  RH  089%=      5-min Rain = 0
KPA1 111134Z 01025G30KT M02/M04 A3019 RMK A01 T10211036  RH  090%=      5-min Rain = 0
KPA1 111135Z 00024G30KT M02/M04 A3019 RMK A01 T10211036  RH  090%=      5-min Rain = 0
KPA1 111136Z 36025KT M02/M04 A3019 RMK A01 T10211036  RH  090%=      5-min Rain = 0
KPA1 111137Z 35028G34KT M02/M04 A3019 RMK A01 T10211036  RH  090%=      5-min Rain = 0
KPA1 111138Z 36029G39KT M02/M04 A3019 RMK A01 T10211036  RH  089%=      5-min Rain = 0
KPA1 111139Z 36027G32KT M02/M04 A3019 RMK A01 T10211036  RH  089%=      5-min Rain = 0
KPA1 111140Z 36025G37KT M02/M04 A3019 RMK A01 T10211036  RH  090%=      5-min Rain = 0
KPA1 111141Z 35028G35KT M02/M04 A3019 RMK A01 T10211036  RH  090%=      5-min Rain = 0
KPA1 111142Z 35028G34KT M02/M04 A3019 RMK A01 T10221036  RH  090%=      5-min Rain = 0
KPA1 111143Z 36029G38KT M02/M04 A302 RMK A01 T10221036  RH  090%=      5-min Rain = 0
KPA1 111144Z 36032G38KT M02/M04 A302 RMK A01 T10221036  RH  090%=      5-min Rain = 0
KPA1 111145Z 36025KT M02/M04 A302 RMK A01 T10231036  RH  091%=      5-min Rain = 0
KPA1 111146Z 35023G29KT M02/M04 A302 RMK A01 T10231036  RH  091%=      5-min Rain = 0
KPA1 111147Z 35028KT M02/M04 A302 RMK A01 T10231036  RH  091%=      5-min Rain = 0
KPA1 111148Z 36030G36KT M02/M04 A302 RMK A01 T10241036  RH  091%=      5-min Rain = 0
KPA1 111149Z 36024G32KT M03/M04 A302 RMK A01 T10251037  RH  091%=      5-min Rain = 0
KPA1 111150Z 00028G35KT M03/M04 A3021 RMK A01 T10251037  RH  091%=      5-min Rain = 0
KPA1 111151Z 36028G35KT M03/M04 A3021 RMK A01 T10261037  RH  092%=      5-min Rain = 0
KPA1 111152Z 01021KT M03/M04 A3021 RMK A01 T10261037  RH  092%=      5-min Rain = 0
KPA1 111153Z 00027G35KT M03/M04 A3021 RMK A01 T10251036  RH  092%=      5-min Rain = 0
KPA1 111154Z 00022G28KT M03/M04 A3021 RMK A01 T10251036  RH  092%=      5-min Rain = 0
KPA1 111155Z 00026G31KT M03/M04 A3021 RMK A01 T10261036  RH  093%=      5-min Rain = 0
KPA1 111156Z 01027G34KT M03/M04 A3022 RMK A01 T10261036  RH  093%=      5-min Rain = 0
KPA1 111157Z 35024G32KT M03/M04 A3022 RMK A01 T10261036  RH  093%=      5-min Rain = 0
KPA1 111158Z 36024G32KT M03/M04 A3022 RMK A01 T10261036  RH  093%=      5-min Rain = 0
KPA1 111159Z 00018G23KT M03/M04 A3022 RMK A01 T10261036  RH  093%=      5-min Rain = 0
KPA1 111200Z 00018G25KT M03/M04 A3022 RMK A01 T10271035  RH  094%=      5-min Rain = 0
KPA1 111201Z 36022G27KT M03/M04 A3022 RMK A01 T10261035  RH  094%=      5-min Rain = 0
KPA1 111202Z 36027G35KT M03/M04 A3022 RMK A01 T10261035  RH  094%=      5-min Rain = 0
KPA1 111203Z 36029G34KT M03/M04 A3022 RMK A01 T10271035  RH  094%=      5-min Rain = 0
KPA1 111204Z 36027G33KT M03/M04 A3022 RMK A01 T10271036  RH  094%=      5-min Rain = 0
KPA1 111205Z 35028G33KT M03/M04 A3022 RMK A01 T10271036  RH  094%=      5-min Rain = 0
KPA1 111206Z 35025KT M03/M04 A3022 RMK A01 T10271036  RH  094%=      5-min Rain = 0
KPA1 111207Z 36026G31KT M03/M04 A3022 RMK A01 T10281036  RH  094%=      5-min Rain = 0
KPA1 111208Z 35024G29KT M03/M04 A3022 RMK A01 T10281036  RH  094%=      5-min Rain = 0
KPA1 111209Z 00026G33KT M03/M04 A3022 RMK A01 T10281037  RH  094%=      5-min Rain = 0
KPA1 111210Z 36030G36KT M03/M04 A3022 RMK A01 T10291037  RH  094%=      5-min Rain = 0
KPA1 111211Z 36031G37KT M03/M04 A3022 RMK A01 T10301039  RH  094%=      5-min Rain = 0
KPA1 111212Z 36031G40KT M03/M04 A3022 RMK A01 T10321041  RH  093%=      5-min Rain = 0
KPA1 111213Z 35035G44KT M03/M04 A3022 RMK A01 T10331043  RH  093%=      5-min Rain = 0
KPA1 111214Z 36030G35KT M03/M04 A3023 RMK A01 T10341044  RH  093%=      5-min Rain = 0
KPA1 111215Z 00027KT M03/M04 A3023 RMK A01 T10341044  RH  093%=      5-min Rain = 0
KPA1 111216Z 00027G33KT M03/M04 A3023 RMK A01 T10341043  RH  093%=      5-min Rain = 0
KPA1 111217Z 01026G32KT M03/M04 A3023 RMK A01 T10341043  RH  093%=      5-min Rain = 0
KPA1 111218Z 36027G34KT M03/M04 A3024 RMK A01 T10341044  RH  093%=      5-min Rain = 0
KPA1 111219Z 01026G32KT M03/M04 A3024 RMK A01 T10341044  RH  093%=      5-min Rain = 0
KPA1 111220Z 01024G29KT M03/M04 A3024 RMK A01 T10341044  RH  093%=      5-min Rain = 0
KPA1 111221Z 01025KT M03/M04 A3024 RMK A01 T10331044  RH  093%=      5-min Rain = 0
KPA1 111222Z 36028G34KT M03/M04 A3024 RMK A01 T10331044  RH  093%=      5-min Rain = 0
KPA1 111223Z 00028G33KT M03/M04 A3024 RMK A01 T10331044  RH  092%=      5-min Rain = 0
KPA1 111224Z 00028G33KT M03/M05 A3024 RMK A01 T10341045  RH  092%=      5-min Rain = 0
KPA1 111225Z 00027G32KT M03/M05 A3024 RMK A01 T10341045  RH  092%=      5-min Rain = 0
KPA1 111226Z 36025G32KT M04/M05 A3024 RMK A01 T10351045  RH  092%=      5-min Rain = 0
KPA1 111227Z 36024G31KT M04/M05 A3025 RMK A01 T10351045  RH  093%=      5-min Rain = 0
KPA1 111228Z 35020KT M04/M05 A3025 RMK A01 T10351045  RH  093%=      5-min Rain = 0
KPA1 111229Z 00019KT M03/M04 A3025 RMK A01 T10341044  RH  093%=      5-min Rain = 0
KPA1 111230Z 36023KT M03/M04 A3025 RMK A01 T10341044  RH  093%=      5-min Rain = 0
KPA1 111231Z 36025G31KT M03/M04 A3025 RMK A01 T10341044  RH  093%=      5-min Rain = 0
KPA1 111232Z 36025G35KT M04/M04 A3025 RMK A01 T10351044  RH  093%=      5-min Rain = 0
KPA1 111233Z 36026G32KT M04/M04 A3025 RMK A01 T10351044  RH  094%=      5-min Rain = 0
KPA1 111234Z 00023KT M04/M05 A3025 RMK A01 T10361045  RH  094%=      5-min Rain = 0
KPA1 111235Z 01026G32KT M04/M04 A3025 RMK A01 T10361044  RH  094%=      5-min Rain = 0
KPA1 111236Z 01032G39KT M04/M05 A3026 RMK A01 T10361046  RH  093%=      5-min Rain = 0
KPA1 111237Z 01027G32KT M04/M05 A3026 RMK A01 T10381048  RH  093%=      5-min Rain = 0
KPA1 111238Z 01026G34KT M04/M05 A3026 RMK A01 T10381049  RH  093%=      5-min Rain = 0
KPA1 111239Z 01030G39KT M04/M05 A3026 RMK A01 T10391050  RH  093%=      5-min Rain = 0
KPA1 111240Z 01030G37KT M04/M05 A3026 RMK A01 T10401050  RH  093%=      5-min Rain = 0
KPA1 111241Z 01027G37KT M04/M05 A3026 RMK A01 T10401050  RH  093%=      5-min Rain = 0
KPA1 111242Z 00029G36KT M04/M05 A3026 RMK A01 T10401049  RH  094%=      5-min Rain = 0
KPA1 111243Z 01027G33KT M04/M05 A3026 RMK A01 T10411049  RH  094%=      5-min Rain = 0
KPA1 111244Z 01026G32KT M04/M05 A3026 RMK A01 T10401048  RH  094%=      5-min Rain = 0
KPA1 111245Z 36022G27KT M04/M05 A3027 RMK A01 T10411048  RH  094%=      5-min Rain = 0
KPA1 111246Z 36026G32KT M04/M05 A3027 RMK A01 T10401047  RH  095%=      5-min Rain = 0
KPA1 111247Z 36026G32KT M04/M05 A3027 RMK A01 T10401047  RH  095%=      5-min Rain = 0
KPA1 111248Z 36025G30KT M04/M05 A3027 RMK A01 T10401047  RH  095%=      5-min Rain = 0
KPA1 111249Z 00026KT M04/M05 A3027 RMK A01 T10401048  RH  095%=      5-min Rain = 0
KPA1 111250Z 00021KT M04/M05 A3027 RMK A01 T10401048  RH  094%=      5-min Rain = 0
KPA1 111251Z 01022G30KT M04/M05 A3027 RMK A01 T10401049  RH  094%=      5-min Rain = 0
KPA1 111252Z 01027G33KT M04/M05 A3027 RMK A01 T10411050  RH  093%=      5-min Rain = 0
KPA1 111253Z 02028G37KT M04/M05 A3028 RMK A01 T10431053  RH  093%=      5-min Rain = 0
KPA1 111254Z 01025G31KT M04/M05 A3028 RMK A01 T10441054  RH  093%=      5-min Rain = 0
KPA1 111255Z 01031G37KT M04/M05 A3028 RMK A01 T10441054  RH  093%=      5-min Rain = 0
KPA1 111256Z 01021KT M05/M06 A3028 RMK A01 T10451055  RH  093%=      5-min Rain = 0
KPA1 111257Z 01025KT M05/M05 A3028 RMK A01 T10451054  RH  093%=      5-min Rain = 0
KPA1 111258Z 01026G34KT M05/M05 A3028 RMK A01 T10451054  RH  093%=      5-min Rain = 0
KPA1 111259Z 01023G33KT M05/M05 A3029 RMK A01 T10451054  RH  093%=      5-min Rain = 0
KPA1 111300Z 00025G31KT M05/M05 A3029 RMK A01 T10451054  RH  094%=      5-min Rain = 0
KPA1 111301Z 01029G37KT M05/M05 A3029 RMK A01 T10451054  RH  093%=      5-min Rain = 0
KPA1 111302Z 36029G36KT M05/M05 A3029 RMK A01 T10451054  RH  093%=      5-min Rain = 0
KPA1 111303Z 36025G31KT M05/M05 A3029 RMK A01 T10451054  RH  093%=      5-min Rain = 0
KPA1 111304Z 36025G33KT M05/M06 A3029 RMK A01 T10451055  RH  093%=      5-min Rain = 0
KPA1 111305Z 00022G33KT M05/M06 A3029 RMK A01 T10451055  RH  093%=      5-min Rain = 0
KPA1 111306Z 00028KT M05/M05 A303 RMK A01 T10451054  RH  093%=      5-min Rain = 0
KPA1 111307Z 00025G31KT M05/M06 A303 RMK A01 T10461055  RH  093%=      5-min Rain = 0
KPA1 111308Z 36025G34KT M05/M06 A303 RMK A01 T10461056  RH  093%=      5-min Rain = 0
KPA1 111309Z 00030KT M05/M06 A303 RMK A01 T10461055  RH  093%=      5-min Rain = 0
KPA1 111310Z 00026KT M05/M06 A303 RMK A01 T10461056  RH  093%=      5-min Rain = 0
KPA1 111311Z 01027KT M05/M06 A303 RMK A01 T10461056  RH  093%=      5-min Rain = 0
KPA1 111312Z 00029G34KT M05/M06 A303 RMK A01 T10461056  RH  093%=      5-min Rain = 0
KPA1 111313Z 00024G31KT M05/M06 A303 RMK A01 T10461056  RH  093%=      5-min Rain = 0
KPA1 111314Z 36018KT M05/M06 A303 RMK A01 T10461055  RH  093%=      5-min Rain = 0
KPA1 111315Z 00025G31KT M05/M06 A303 RMK A01 T10451055  RH  093%=      5-min Rain = 0
KPA1 111316Z 00024G32KT M05/M06 A303 RMK A01 T10451055  RH  093%=      5-min Rain = 0
KPA1 111317Z 01022G31KT M05/M06 A3031 RMK A01 T10451055  RH  093%=      5-min Rain = 0
KPA1 111318Z 00025G31KT M05/M06 A3031 RMK A01 T10461055  RH  093%=      5-min Rain = 0
KPA1 111319Z 00029KT M05/M06 A3031 RMK A01 T10461056  RH  093%=      5-min Rain = 0
KPA1 111320Z 36025KT M05/M06 A3031 RMK A01 T10461056  RH  092%=      5-min Rain = 0
KPA1 111321Z 00027G35KT M05/M06 A3031 RMK A01 T10461057  RH  092%=      5-min Rain = 0
KPA1 111322Z 36026G31KT M05/M06 A3031 RMK A01 T10461057  RH  092%=      5-min Rain = 0
KPA1 111323Z 00025G35KT M05/M06 A3032 RMK A01 T10461057  RH  092%=      5-min Rain = 0
KPA1 111324Z 01026G31KT M05/M06 A3032 RMK A01 T10461057  RH  092%=      5-min Rain = 0
KPA1 111325Z 00023G28KT M05/M06 A3032 RMK A01 T10461056  RH  093%=      5-min Rain = 0
KPA1 111326Z 00021KT M05/M06 A3032 RMK A01 T10471056  RH  093%=      5-min Rain = 0
KPA1 111327Z 35023KT M05/M06 A3032 RMK A01 T10461056  RH  093%=      5-min Rain = 0
KPA1 111328Z 35025G33KT M05/M06 A3032 RMK A01 T10471056  RH  093%=      5-min Rain = 0
KPA1 111329Z 35025KT M05/M06 A3032 RMK A01 T10481058  RH  093%=      5-min Rain = 0
KPA1 111330Z 36025G30KT M05/M06 A3033 RMK A01 T10491058  RH  093%=      5-min Rain = 0
KPA1 111331Z 01027G34KT M05/M06 A3033 RMK A01 T10491059  RH  093%=      5-min Rain = 0
KPA1 111332Z 36029G34KT M05/M06 A3033 RMK A01 T10501059  RH  093%=      5-min Rain = 0
KPA1 111333Z 36025G35KT M05/M06 A3033 RMK A01 T10511060  RH  093%=      5-min Rain = 0
KPA1 111334Z 36026G35KT M05/M06 A3033 RMK A01 T10511060  RH  093%=      5-min Rain = 0
KPA1 111335Z 00028G35KT M05/M06 A3033 RMK A01 T10511060  RH  093%=      5-min Rain = 0
KPA1 111336Z 36025G32KT M05/M06 A3034 RMK A01 T10521061  RH  093%=      5-min Rain = 0
KPA1 111337Z 00025KT M05/M06 A3034 RMK A01 T10511060  RH  094%=      5-min Rain = 0
KPA1 111338Z 36028KT M05/M06 A3034 RMK A01 T10521061  RH  093%=      5-min Rain = 0
KPA1 111339Z 36029G36KT M05/M06 A3034 RMK A01 T10521062  RH  093%=      5-min Rain = 0
KPA1 111340Z 00028G34KT M05/M06 A3034 RMK A01 T10531064  RH  092%=      5-min Rain = 0
KPA1 111341Z 00025G32KT M05/M07 A3034 RMK A01 T10541065  RH  092%=      5-min Rain = 0
KPA1 111342Z 00025G31KT M05/M07 A3034 RMK A01 T10541066  RH  092%=      5-min Rain = 0
KPA1 111343Z 00027G32KT M06/M07 A3034 RMK A01 T10551066  RH  092%=      5-min Rain = 0
KPA1 111344Z 01033G38KT M06/M07 A3034 RMK A01 T10551066  RH  092%=      5-min Rain = 0
KPA1 111345Z 00028G35KT M06/M07 A3034 RMK A01 T10551067  RH  091%=      5-min Rain = 0
KPA1 111346Z 00025KT M06/M07 A3034 RMK A01 T10551067  RH  091%=      5-min Rain = 0
KPA1 111347Z 00024G34KT M06/M07 A3034 RMK A01 T10551067  RH  091%=      5-min Rain = 0
KPA1 111348Z 36024G30KT M06/M07 A3034 RMK A01 T10551067  RH  091%=      5-min Rain = 0
KPA1 111349Z 01022G29KT M06/M07 A3034 RMK A01 T10551067  RH  091%=      5-min Rain = 0
KPA1 111350Z 01023G30KT M06/M07 A3035 RMK A01 T10551067  RH  091%=      5-min Rain = 0
KPA1 111351Z 00020KT M06/M07 A3035 RMK A01 T10551066  RH  091%=      5-min Rain = 0
KPA1 111352Z 36026KT M05/M07 A3035 RMK A01 T10541066  RH  092%=      5-min Rain = 0
KPA1 111353Z 36023G28KT M06/M07 A3035 RMK A01 T10551066  RH  092%=      5-min Rain = 0
KPA1 111354Z 36025KT M06/M07 A3035 RMK A01 T10551066  RH  092%=      5-min Rain = 0
KPA1 111355Z 00024KT M06/M07 A3035 RMK A01 T10551066  RH  092%=      5-min Rain = 0
KPA1 111356Z 36023G28KT M06/M07 A3035 RMK A01 T10561066  RH  092%=      5-min Rain = 0
KPA1 111357Z 00021KT M06/M07 A3035 RMK A01 T10551065  RH  093%=      5-min Rain = 0
KPA1 111358Z 01023G29KT M06/M07 A3035 RMK A01 T10561065  RH  093%=      5-min Rain = 0
KPA1 111359Z 00025G33KT M06/M07 A3036 RMK A01 T10561065  RH  093%=      5-min Rain = 0
KPA1 111400Z 00023G28KT M06/M07 A3035 RMK A01 T10561066  RH  093%=      5-min Rain = 0
KPA1 111401Z 00021G26KT M06/M07 A3036 RMK A01 T10561066  RH  093%=      5-min Rain = 0
KPA1 111402Z 36027G34KT M06/M07 A3036 RMK A01 T10571066  RH  093%=      5-min Rain = 0
KPA1 111403Z 36023G28KT M06/M07 A3036 RMK A01 T10571066  RH  093%=      5-min Rain = 0
KPA1 111404Z 35021G26KT M06/M07 A3036 RMK A01 T10571066  RH  093%=      5-min Rain = 0
KPA1 111405Z 35027G34KT M06/M07 A3036 RMK A01 T10571066  RH  093%=      5-min Rain = 0
KPA1 111406Z 00025G31KT M06/M07 A3036 RMK A01 T10571067  RH  093%=      5-min Rain = 0
KPA1 111407Z 36025G31KT M06/M07 A3036 RMK A01 T10581068  RH  092%=      5-min Rain = 0
KPA1 111408Z 36021KT M06/M07 A3036 RMK A01 T10591070  RH  092%=      5-min Rain = 0
KPA1 111409Z 00024KT M06/M07 A3036 RMK A01 T10591070  RH  092%=      5-min Rain = 0
KPA1 111410Z 00023G30KT M06/M07 A3036 RMK A01 T10591070  RH  092%=      5-min Rain = 0
KPA1 111411Z 35024G30KT M06/M07 A3036 RMK A01 T10601070  RH  092%=      5-min Rain = 0
KPA1 111412Z 35028KT M06/M07 A3036 RMK A01 T10611072  RH  092%=      5-min Rain = 0
KPA1 111413Z 36023G28KT M06/M07 A3037 RMK A01 T10621074  RH  092%=      5-min Rain = 0
KPA1 111414Z 36022G27KT M06/M07 A3037 RMK A01 T10631073  RH  092%=      5-min Rain = 0
KPA1 111415Z 35027KT M06/M07 A3037 RMK A01 T10621073  RH  092%=      5-min Rain = 0
KPA1 111416Z 36024G29KT M06/M07 A3037 RMK A01 T10631073  RH  093%=      5-min Rain = 0
KPA1 111417Z 36025G32KT M06/M07 A3037 RMK A01 T10631073  RH  093%=      5-min Rain = 0
KPA1 111418Z 36025G31KT M06/M07 A3037 RMK A01 T10631073  RH  093%=      5-min Rain = 0
KPA1 111419Z 36026G34KT M06/M07 A3037 RMK A01 T10631073  RH  093%=      5-min Rain = 0
KPA1 111420Z 00023G29KT M06/M07 A3038 RMK A01 T10631073  RH  093%=      5-min Rain = 0
KPA1 111421Z 00022G27KT M06/M07 A3037 RMK A01 T10641073  RH  093%=      5-min Rain = 0
KPA1 111422Z 00023KT M06/M07 A3037 RMK A01 T10631072  RH  093%=      5-min Rain = 0
KPA1 111423Z 36025G30KT M06/M07 A3037 RMK A01 T10631072  RH  094%=      5-min Rain = 0
KPA1 111424Z 35024KT M06/M07 A3037 RMK A01 T10631072  RH  093%=      5-min Rain = 0
KPA1 111425Z 36028G33KT M06/M07 A3037 RMK A01 T10631072  RH  093%=      5-min Rain = 0
KPA1 111426Z 35027G34KT M06/M07 A3037 RMK A01 T10631073  RH  093%=      5-min Rain = 0
KPA1 111427Z 36025KT M06/M07 A3037 RMK A01 T10631072  RH  093%=      5-min Rain = 0
KPA1 111428Z 01028G34KT M06/M07 A3037 RMK A01 T10621072  RH  093%=      5-min Rain = 0
KPA1 111429Z 36021KT M06/M07 A3037 RMK A01 T10621072  RH  093%=      5-min Rain = 0
KPA1 111430Z 36024KT M06/M07 A3037 RMK A01 T10631072  RH  093%=      5-min Rain = 0
KPA1 111431Z 36026G32KT M06/M07 A3037 RMK A01 T10631073  RH  093%=      5-min Rain = 0
KPA1 111432Z 35024KT M06/M07 A3037 RMK A01 T10631073  RH  093%=      5-min Rain = 0
KPA1 111433Z 35026G31KT M06/M07 A3037 RMK A01 T10631073  RH  093%=      5-min Rain = 0
KPA1 111434Z 36025G30KT M06/M07 A3037 RMK A01 T10631073  RH  093%=      5-min Rain = 0
KPA1 111435Z 36025G32KT M06/M07 A3037 RMK A01 T10631073  RH  093%=      5-min Rain = 0
KPA1 111436Z 00024G29KT M06/M07 A3037 RMK A01 T10631073  RH  093%=      5-min Rain = 0
KPA1 111437Z 00021KT M06/M07 A3037 RMK A01 T10621072  RH  093%=      5-min Rain = 0
KPA1 111438Z 00022KT M06/M07 A3037 RMK A01 T10611070  RH  093%=      5-min Rain = 0
KPA1 111439Z 36022G29KT M06/M07 A3037 RMK A01 T10611071  RH  093%=      5-min Rain = 0
KPA1 111440Z 36025KT M06/M07 A3037 RMK A01 T10611071  RH  093%=      5-min Rain = 0
KPA1 111441Z 00026G33KT M06/M07 A3038 RMK A01 T10611072  RH  092%=      5-min Rain = 0
KPA1 111442Z 00026G31KT M06/M07 A3038 RMK A01 T10611073  RH  092%=      5-min Rain = 0
KPA1 111443Z 01022G27KT M06/M07 A3038 RMK A01 T10611073  RH  091%=      5-min Rain = 0
KPA1 111444Z 01021G27KT M06/M07 A3038 RMK A01 T10621074  RH  091%=      5-min Rain = 0
KPA1 111445Z 00024G31KT M06/M07 A3039 RMK A01 T10621074  RH  091%=      5-min Rain = 0
KPA1 111446Z 00022G28KT M06/M07 A3039 RMK A01 T10621074  RH  091%=      5-min Rain = 0
KPA1 111447Z 01022G27KT M06/M07 A3039 RMK A01 T10621074  RH  091%=      5-min Rain = 0
KPA1 111448Z 01020KT M06/M07 A3039 RMK A01 T10621074  RH  091%=      5-min Rain = 0
KPA1 111449Z 01019KT M06/M07 A3039 RMK A01 T10621074  RH  091%=      5-min Rain = 0
KPA1 111450Z 00016G22KT M06/M07 A3039 RMK A01 T10621074  RH  092%=      5-min Rain = 0
KPA1 111451Z 01020G25KT M06/M07 A304 RMK A01 T10621073  RH  092%=      5-min Rain = 0
KPA1 111452Z 36023G28KT M06/M07 A304 RMK A01 T10621073  RH  092%=      5-min Rain = 0
KPA1 111453Z 00020KT M06/M07 A304 RMK A01 T10621073  RH  092%=      5-min Rain = 0
KPA1 111454Z 01021KT M06/M07 A304 RMK A01 T10631074  RH  092%=      5-min Rain = 0
KPA1 111455Z 36019KT M06/M07 A304 RMK A01 T10631074  RH  092%=      5-min Rain = 0
KPA1 111456Z 36021KT M06/M07 A304 RMK A01 T10631073  RH  092%=      5-min Rain = 0
KPA1 111457Z 36019KT M06/M08 A304 RMK A01 T10641075  RH  092%=      5-min Rain = 0
KPA1 111458Z 36022KT M06/M08 A304 RMK A01 T10641075  RH  092%=      5-min Rain = 0
KPA1 111459Z 35019KT M07/M08 A304 RMK A01 T10651076  RH  092%=      5-min Rain = 0
KPA1 111500Z 36024G30KT M06/M08 A304 RMK A01 T10641076  RH  092%=      5-min Rain = 0
KPA1 111501Z 36022KT M07/M08 A3041 RMK A01 T10651077  RH  091%=      5-min Rain = 0
KPA1 111502Z 36021G29KT M07/M08 A3041 RMK A01 T10661078  RH  091%=      5-min Rain = 0
KPA1 111503Z 35025KT M07/M08 A3041 RMK A01 T10671078  RH  092%=      5-min Rain = 0
KPA1 111504Z 35021G26KT M07/M08 A3041 RMK A01 T10671079  RH  091%=      5-min Rain = 0
KPA1 111505Z 36020G25KT M07/M08 A3041 RMK A01 T10681079  RH  091%=      5-min Rain = 0
KPA1 111506Z 36021G27KT M07/M08 A3041 RMK A01 T10681079  RH  092%=      5-min Rain = 0
KPA1 111507Z 36023KT M07/M08 A3041 RMK A01 T10681079  RH  091%=      5-min Rain = 0
KPA1 111508Z 00022G27KT M07/M08 A3041 RMK A01 T10681081  RH  091%=      5-min Rain = 0
KPA1 111509Z 00025KT M07/M08 A3041 RMK A01 T10691081  RH  091%=      5-min Rain = 0
KPA1 111510Z 00025KT M07/M08 A3042 RMK A01 T10681081  RH  091%=      5-min Rain = 0
KPA1 111511Z 00020KT M07/M08 A3041 RMK A01 T10681081  RH  090%=      5-min Rain = 0
KPA1 111512Z 36029G36KT M07/M08 A3041 RMK A01 T10691082  RH  090%=      5-min Rain = 0
KPA1 111513Z 00028KT M07/M08 A3041 RMK A01 T10681082  RH  090%=      5-min Rain = 0
KPA1 111514Z 00030G36KT M07/M08 A3042 RMK A01 T10681084  RH  089%=      5-min Rain = 0
KPA1 111515Z 00026KT M07/M09 A3042 RMK A01 T10691085  RH  088%=      5-min Rain = 0
KPA1 111516Z 01026KT M07/M09 A3042 RMK A01 T10691085  RH  088%=      5-min Rain = 0
KPA1 111517Z 36023G29KT M07/M09 A3042 RMK A01 T10691085  RH  088%=      5-min Rain = 0
KPA1 111518Z 00027KT M07/M09 A3042 RMK A01 T10691085  RH  088%=      5-min Rain = 0
KPA1 111519Z 01025G31KT M07/M09 A3042 RMK A01 T10681085  RH  088%=      5-min Rain = 0
KPA1 111520Z 00023KT M07/M09 A3042 RMK A01 T10691086  RH  088%=      5-min Rain = 0
KPA1 111521Z 01021G26KT M07/M09 A3042 RMK A01 T10691086  RH  088%=      5-min Rain = 0
KPA1 111522Z 00023KT M07/M09 A3043 RMK A01 T10691086  RH  088%=      5-min Rain = 0
KPA1 111523Z 00022G28KT M07/M09 A3042 RMK A01 T10681086  RH  088%=      5-min Rain = 0
KPA1 111524Z 01024G30KT M07/M09 A3042 RMK A01 T10681086  RH  087%=      5-min Rain = 0
KPA1 111525Z 01025KT M07/M09 A3042 RMK A01 T10681087  RH  087%=      5-min Rain = 0
KPA1 111526Z 01021KT M07/M09 A3042 RMK A01 T10681087  RH  087%=      5-min Rain = 0
KPA1 111527Z 00026G35KT M07/M09 A3042 RMK A01 T10681086  RH  087%=      5-min Rain = 0
KPA1 111528Z 01021G26KT M07/M09 A3042 RMK A01 T10681087  RH  087%=      5-min Rain = 0
KPA1 111529Z 01028G33KT M07/M09 A3042 RMK A01 T10681086  RH  086%=      5-min Rain = 0
KPA1 111530Z 01026KT M07/M09 A3043 RMK A01 T10671087  RH  086%=      5-min Rain = 0
KPA1 111531Z 01022KT M07/M09 A3043 RMK A01 T10681088  RH  086%=      5-min Rain = 0
KPA1 111532Z 01024G29KT M07/M09 A3043 RMK A01 T10681088  RH  086%=      5-min Rain = 0
KPA1 111533Z 01021G27KT M07/M09 A3043 RMK A01 T10681087  RH  086%=      5-min Rain = 0
KPA1 111534Z 01024G30KT M07/M09 A3043 RMK A01 T10681087  RH  086%=      5-min Rain = 0
KPA1 111535Z 36021G29KT M07/M09 A3043 RMK A01 T10681087  RH  086%=      5-min Rain = 0
KPA1 111536Z 00028KT M07/M09 A3043 RMK A01 T10681086  RH  087%=      5-min Rain = 0
KPA1 111537Z 36024KT M07/M09 A3043 RMK A01 T10681087  RH  087%=      5-min Rain = 0
KPA1 111538Z 00021KT M07/M09 A3043 RMK A01 T10691087  RH  087%=      5-min Rain = 0
KPA1 111539Z 36017G23KT M07/M09 A3043 RMK A01 T10691086  RH  088%=      5-min Rain = 0
KPA1 111540Z 01018KT M07/M09 A3043 RMK A01 T10681085  RH  088%=      5-min Rain = 0
KPA1 111541Z 00020KT M07/M08 A3043 RMK A01 T10681084  RH  088%=      5-min Rain = 0
KPA1 111542Z 01019KT M07/M08 A3043 RMK A01 T10681084  RH  089%=      5-min Rain = 0
KPA1 111543Z 36015G20KT M07/M08 A3043 RMK A01 T10681083  RH  089%=      5-min Rain = 0
KPA1 111544Z 36020G25KT M07/M08 A3043 RMK A01 T10671082  RH  089%=      5-min Rain = 0
KPA1 111545Z 36018G23KT M07/M08 A3043 RMK A01 T10671083  RH  089%=      5-min Rain = 0
KPA1 111546Z 35018KT M07/M08 A3043 RMK A01 T10681083  RH  089%=      5-min Rain = 0
KPA1 111547Z 35021KT M07/M08 A3043 RMK A01 T10681083  RH  089%=      5-min Rain = 0
KPA1 111548Z 35021KT M07/M09 A3043 RMK A01 T10701085  RH  089%=      5-min Rain = 0
KPA1 111549Z 35021KT M07/M09 A3043 RMK A01 T10711086  RH  089%=      5-min Rain = 0
KPA1 111550Z 35020KT M07/M09 A3043 RMK A01 T10711086  RH  089%=      5-min Rain = 0
KPA1 111551Z 35024G29KT M07/M09 A3043 RMK A01 T10711086  RH  089%=      5-min Rain = 0
KPA1 111552Z 36024G32KT M07/M09 A3043 RMK A01 T10711086  RH  089%=      5-min Rain = 0
KPA1 111553Z 35025G30KT M07/M09 A3043 RMK A01 T10721087  RH  089%=      5-min Rain = 0
KPA1 111554Z 35025G31KT M07/M09 A3043 RMK A01 T10721088  RH  089%=      5-min Rain = 0
KPA1 111555Z 36025KT M07/M09 A3044 RMK A01 T10721088  RH  089%=      5-min Rain = 0
KPA1 111556Z 36022G28KT M07/M09 A3043 RMK A01 T10731089  RH  089%=      5-min Rain = 0
KPA1 111557Z 36023KT M07/M09 A3044 RMK A01 T10721088  RH  089%=      5-min Rain = 0
KPA1 111558Z 36025KT M07/M09 A3043 RMK A01 T10721088  RH  089%=      5-min Rain = 0
KPA1 111559Z 36027G33KT M07/M09 A3044 RMK A01 T10721088  RH  089%=      5-min Rain = 0
KPA1 111600Z 00027G32KT M07/M09 A3043 RMK A01 T10721088  RH  089%=      5-min Rain = 0
KPA1 111601Z 00024G30KT M07/M09 A3044 RMK A01 T10721088  RH  089%=      5-min Rain = 0
KPA1 111602Z 00024KT M07/M09 A3044 RMK A01 T10711087  RH  089%=      5-min Rain = 0
KPA1 111603Z 36029G34KT M07/M09 A3044 RMK A01 T10711087  RH  088%=      5-min Rain = 0
KPA1 111604Z 36026G33KT M07/M09 A3044 RMK A01 T10711089  RH  087%=      5-min Rain = 0
KPA1 111605Z 36024G30KT M07/M09 A3044 RMK A01 T10711090  RH  087%=      5-min Rain = 0
KPA1 111606Z 36026G31KT M07/M09 A3044 RMK A01 T10721090  RH  087%=      5-min Rain = 0
KPA1 111607Z 00026KT M07/M09 A3044 RMK A01 T10711090  RH  086%=      5-min Rain = 0
KPA1 111608Z 00026KT M07/M09 A3044 RMK A01 T10711091  RH  086%=      5-min Rain = 0
KPA1 111609Z 36022G28KT M07/M09 A3044 RMK A01 T10711091  RH  086%=      5-min Rain = 0
KPA1 111610Z 01020G27KT M07/M09 A3044 RMK A01 T10691088  RH  087%=      5-min Rain = 0
KPA1 111611Z 00027G34KT M07/M09 A3044 RMK A01 T10681088  RH  086%=      5-min Rain = 0
KPA1 111612Z 35023KT M07/M09 A3044 RMK A01 T10691090  RH  085%=      5-min Rain = 0
KPA1 111613Z 00028G34KT M07/M09 A3044 RMK A01 T10691092  RH  084%=      5-min Rain = 0
KPA1 111614Z 00023G28KT M07/M09 A3044 RMK A01 T10701094  RH  083%=      5-min Rain = 0
KPA1 111615Z 00022G27KT M07/M09 A3044 RMK A01 T10701093  RH  084%=      5-min Rain = 0
KPA1 111616Z 01021KT M07/M09 A3044 RMK A01 T10691092  RH  084%=      5-min Rain = 0
KPA1 111617Z 01019KT M07/M09 A3044 RMK A01 T10691091  RH  084%=      5-min Rain = 0
KPA1 111618Z 36023G30KT M07/M09 A3044 RMK A01 T10681091  RH  084%=      5-min Rain = 0
KPA1 111619Z 00024G29KT M07/M09 A3044 RMK A01 T10681093  RH  082%=      5-min Rain = 0
KPA1 111620Z 00019KT M07/M10 A3045 RMK A01 T10691095  RH  082%=      5-min Rain = 0
KPA1 111621Z 36025G31KT M07/M09 A3045 RMK A01 T10681094  RH  082%=      5-min Rain = 0
KPA1 111622Z 00023G28KT M07/M10 A3045 RMK A01 T10681095  RH  081%=      5-min Rain = 0
KPA1 111623Z 00029KT M07/M10 A3045 RMK A01 T10691095  RH  081%=      5-min Rain = 0
KPA1 111624Z 01025KT M07/M10 A3045 RMK A01 T10691097  RH  081%=      5-min Rain = 0
KPA1 111625Z 01026KT M07/M10 A3045 RMK A01 T10701098  RH  081%=      5-min Rain = 0
KPA1 111626Z 00027G33KT M07/M10 A3045 RMK A01 T10691097  RH  081%=      5-min Rain = 0
KPA1 111627Z 01024G31KT M07/M10 A3045 RMK A01 T10691098  RH  080%=      5-min Rain = 0
KPA1 111628Z 00025G31KT M07/M10 A3045 RMK A01 T10691098  RH  080%=      5-min Rain = 0
KPA1 111629Z 00027G32KT M07/M10 A3045 RMK A01 T10691098  RH  080%=      5-min Rain = 0
KPA1 111630Z 00026KT M07/M10 A3045 RMK A01 T10691097  RH  080%=      5-min Rain = 0
KPA1 111631Z 01026KT M07/M10 A3045 RMK A01 T10691096  RH  081%=      5-min Rain = 0
KPA1 111632Z 00024G29KT M07/M10 A3045 RMK A01 T10691095  RH  081%=      5-min Rain = 0
KPA1 111633Z 35022KT M07/M10 A3045 RMK A01 T10691095  RH  082%=      5-min Rain = 0
KPA1 111634Z 00019KT M07/M09 A3045 RMK A01 T10691094  RH  082%=      5-min Rain = 0
KPA1 111635Z 00021KT M07/M09 A3045 RMK A01 T10691093  RH  083%=      5-min Rain = 0
KPA1 111636Z 36020G26KT M07/M09 A3045 RMK A01 T10691093  RH  083%=      5-min Rain = 0
KPA1 111637Z 35021KT M07/M09 A3045 RMK A01 T10691093  RH  083%=      5-min Rain = 0
KPA1 111638Z 36023G30KT M07/M09 A3046 RMK A01 T10691093  RH  083%=      5-min Rain = 0
KPA1 111639Z 00027KT M07/M10 A3046 RMK A01 T10691096  RH  081%=      5-min Rain = 0
KPA1 111640Z 36029G38KT M07/M10 A3046 RMK A01 T10691099  RH  079%=      5-min Rain = 0
KPA1 111641Z 00027KT M07/M10 A3046 RMK A01 T10691101  RH  078%=      5-min Rain = 0
KPA1 111642Z 00025G30KT M07/M10 A3046 RMK A01 T10691102  RH  078%=      5-min Rain = 0
KPA1 111643Z 00027G32KT M07/M10 A3045 RMK A01 T10681101  RH  078%=      5-min Rain = 0
KPA1 111644Z 00024KT M07/M10 A3046 RMK A01 T10681101  RH  077%=      5-min Rain = 0
KPA1 111645Z 00020G25KT M07/M10 A3046 RMK A01 T10661099  RH  077%=      5-min Rain = 0
KPA1 111646Z 36025G30KT M07/M10 A3046 RMK A01 T10651099  RH  077%=      5-min Rain = 0
KPA1 111647Z 36022G28KT M07/M10 A3046 RMK A01 T10651100  RH  076%=      5-min Rain = 0
KPA1 111648Z 36029G34KT M07/M10 A3046 RMK A01 T10651101  RH  075%=      5-min Rain = 0
KPA1 111649Z 36027G32KT M07/M10 A3046 RMK A01 T10661104  RH  074%=      5-min Rain = 0
KPA1 111650Z 36025G30KT M07/M10 A3046 RMK A01 T10661103  RH  075%=      5-min Rain = 0
KPA1 111651Z 35022KT M07/M10 A3046 RMK A01 T10661102  RH  075%=      5-min Rain = 0
KPA1 111652Z 00023G32KT M06/M10 A3046 RMK A01 T10641100  RH  076%=      5-min Rain = 0
KPA1 111653Z 00023G28KT M06/M10 A3046 RMK A01 T10631100  RH  075%=      5-min Rain = 0
KPA1 111654Z 00025KT M06/M10 A3046 RMK A01 T10641101  RH  075%=      5-min Rain = 0
KPA1 111655Z 00024KT M06/M10 A3046 RMK A01 T10641101  RH  075%=      5-min Rain = 0
KPA1 111656Z 00024G33KT M06/M10 A3046 RMK A01 T10641101  RH  075%=      5-min Rain = 0
KPA1 111657Z 00024G29KT M06/M10 A3046 RMK A01 T10641100  RH  076%=      5-min Rain = 0
KPA1 111658Z 00022KT M06/M10 A3046 RMK A01 T10641099  RH  076%=      5-min Rain = 0
KPA1 111659Z 35026G31KT M06/M10 A3046 RMK A01 T10621097  RH  076%=      5-min Rain = 0
KPA1 111700Z 36025G31KT M06/M10 A3046 RMK A01 T10621098  RH  076%=      5-min Rain = 0
KPA1 111701Z 36028G34KT M06/M10 A3045 RMK A01 T10621099  RH  075%=      5-min Rain = 0
KPA1 111702Z 36029G34KT M06/M10 A3046 RMK A01 T10631101  RH  074%=      5-min Rain = 0
KPA1 111703Z 36025G30KT M06/M10 A3046 RMK A01 T10631102  RH  074%=      5-min Rain = 0
KPA1 111704Z 35025G32KT M06/M10 A3046 RMK A01 T10631102  RH  074%=      5-min Rain = 0
KPA1 111705Z 35028G34KT M06/M10 A3046 RMK A01 T10631103  RH  073%=      5-min Rain = 0
KPA1 111706Z 35026G32KT M06/M10 A3046 RMK A01 T10641104  RH  073%=      5-min Rain = 0
KPA1 111707Z 35025G30KT M06/M10 A3046 RMK A01 T10641103  RH  074%=      5-min Rain = 0
KPA1 111708Z 35020KT M06/M10 A3046 RMK A01 T10641102  RH  075%=      5-min Rain = 0
KPA1 111709Z 35022G28KT M06/M10 A3046 RMK A01 T10611097  RH  076%=      5-min Rain = 0
KPA1 111710Z 00023G28KT M06/M10 A3046 RMK A01 T10601099  RH  074%=      5-min Rain = 0
KPA1 111711Z 00024G31KT M06/M10 A3046 RMK A01 T10611100  RH  074%=      5-min Rain = 0
KPA1 111712Z 36023G29KT M06/M10 A3046 RMK A01 T10611102  RH  073%=      5-min Rain = 0
KPA1 111713Z 35027G34KT M06/M10 A3046 RMK A01 T10611101  RH  073%=      5-min Rain = 0
KPA1 111714Z 36029KT M06/M10 A3046 RMK A01 T10611103  RH  072%=      5-min Rain = 0
KPA1 111715Z 35024G29KT M06/M11 A3046 RMK A01 T10631105  RH  072%=      5-min Rain = 0
KPA1 111716Z 36026G31KT M06/M10 A3046 RMK A01 T10621103  RH  073%=      5-min Rain = 0
KPA1 111717Z 00025KT M06/M11 A3046 RMK A01 T10631105  RH  072%=      5-min Rain = 0
KPA1 111718Z 36025G33KT M06/M11 A3046 RMK A01 T10631105  RH  072%=      5-min Rain = 0
KPA1 111719Z 36021G27KT M06/M11 A3046 RMK A01 T10631105  RH  072%=      5-min Rain = 0
KPA1 111720Z 35026G34KT M06/M10 A3046 RMK A01 T10621102  RH  073%=      5-min Rain = 0
KPA1 111721Z 35026G32KT M06/M10 A3047 RMK A01 T10611104  RH  072%=      5-min Rain = 0
KPA1 111722Z 35028G35KT M06/M11 A3047 RMK A01 T10611105  RH  071%=      5-min Rain = 0
KPA1 111723Z 36028G33KT M06/M11 A3047 RMK A01 T10621106  RH  071%=      5-min Rain = 0
KPA1 111724Z 00025G33KT M06/M11 A3047 RMK A01 T10621106  RH  071%=      5-min Rain = 0
KPA1 111725Z 35025G33KT M06/M10 A3047 RMK A01 T10601104  RH  072%=      5-min Rain = 0
KPA1 111726Z 35023G28KT M06/M10 A3047 RMK A01 T10601103  RH  072%=      5-min Rain = 0
KPA1 111727Z 35027G33KT M06/M10 A3047 RMK A01 T10601103  RH  071%=      5-min Rain = 0
KPA1 111728Z 35024G31KT M06/M10 A3047 RMK A01 T10601104  RH  071%=      5-min Rain = 0
KPA1 111729Z 00027KT M06/M10 A3047 RMK A01 T10601103  RH  071%=      5-min Rain = 0
KPA1 111730Z 36024G29KT M06/M10 A3047 RMK A01 T10601104  RH  071%=      5-min Rain = 0
KPA1 111731Z 35023G29KT M06/M10 A3047 RMK A01 T10601103  RH  072%=      5-min Rain = 0
KPA1 111732Z 35024G31KT M06/M10 A3046 RMK A01 T10591102  RH  072%=      5-min Rain = 0
KPA1 111733Z 35022G29KT M06/M10 A3047 RMK A01 T10591103  RH  071%=      5-min Rain = 0
KPA1 111734Z 35024G29KT M06/M10 A3046 RMK A01 T10571102  RH  071%=      5-min Rain = 0
KPA1 111735Z 35022KT M06/M10 A3047 RMK A01 T10571102  RH  071%=      5-min Rain = 0
KPA1 111736Z 36021G27KT M06/M10 A3047 RMK A01 T10561101  RH  071%=      5-min Rain = 0
KPA1 111737Z 35023G28KT M05/M10 A3046 RMK A01 T10541100  RH  070%=      5-min Rain = 0
KPA1 111738Z 36020G25KT M05/M10 A3047 RMK A01 T10541101  RH  069%=      5-min Rain = 0
KPA1 111739Z 35025G31KT M05/M10 A3046 RMK A01 T10531101  RH  069%=      5-min Rain = 0
KPA1 111740Z 00027G33KT M06/M10 A3047 RMK A01 T10551104  RH  069%=      5-min Rain = 0
KPA1 111741Z 36028G33KT M06/M11 A3046 RMK A01 T10571106  RH  068%=      5-min Rain = 0
KPA1 111742Z 00024KT M06/M11 A3047 RMK A01 T10571105  RH  069%=      5-min Rain = 0
KPA1 111743Z 36021G27KT M06/M10 A3046 RMK A01 T10561104  RH  069%=      5-min Rain = 0
KPA1 111744Z 35023G29KT M05/M10 A3046 RMK A01 T10541102  RH  069%=      5-min Rain = 0
KPA1 111745Z 00023KT M05/M10 A3047 RMK A01 T10531101  RH  069%=      5-min Rain = 0
KPA1 111746Z 00027G33KT M05/M10 A3047 RMK A01 T10531103  RH  068%=      5-min Rain = 0
KPA1 111747Z 00026KT M06/M11 A3047 RMK A01 T10551106  RH  067%=      5-min Rain = 0
KPA1 111748Z 36023G28KT M06/M11 A3047 RMK A01 T10551106  RH  068%=      5-min Rain = 0
KPA1 111749Z 35025G32KT M06/M10 A3047 RMK A01 T10551104  RH  068%=      5-min Rain = 0
KPA1 111750Z 35025KT M05/M11 A3047 RMK A01 T10541105  RH  067%=      5-min Rain = 0
KPA1 111751Z 00023G31KT M06/M11 A3047 RMK A01 T10551105  RH  068%=      5-min Rain = 0
KPA1 111752Z 36023G28KT M05/M10 A3047 RMK A01 T10541104  RH  068%=      5-min Rain = 0
KPA1 111753Z 35024KT M05/M10 A3047 RMK A01 T10531103  RH  068%=      5-min Rain = 0
KPA1 111754Z 35025KT M05/M10 A3047 RMK A01 T10531103  RH  068%=      5-min Rain = 0
KPA1 111755Z 35025G30KT M05/M11 A3047 RMK A01 T10531105  RH  067%=      5-min Rain = 0
KPA1 111756Z 35024G33KT M05/M11 A3047 RMK A01 T10521105  RH  066%=      5-min Rain = 0
KPA1 111757Z 00026G35KT M05/M11 A3048 RMK A01 T10511105  RH  066%=      5-min Rain = 0
KPA1 111758Z 00027G33KT M05/M11 A3047 RMK A01 T10501106  RH  065%=      5-min Rain = 0
KPA1 111759Z 00028KT M05/M11 A3048 RMK A01 T10511107  RH  064%=      5-min Rain = 0
KPA1 111800Z 00027G33KT M05/M11 A3047 RMK A01 T10511108  RH  064%=      5-min Rain = 0
KPA1 111801Z 00022KT M05/M11 A3047 RMK A01 T10511107  RH  064%=      5-min Rain = 0
KPA1 111802Z 00020KT M05/M10 A3047 RMK A01 T10461102  RH  065%=      5-min Rain = 0
KPA1 111803Z 35030G36KT M04/M10 A3047 RMK A01 T10431100  RH  064%=      5-min Rain = 0
KPA1 111804Z 36027G32KT M05/M11 A3047 RMK A01 T10451106  RH  062%=      5-min Rain = 0
KPA1 111805Z 35027G33KT M05/M11 A3047 RMK A01 T10471108  RH  062%=      5-min Rain = 0
KPA1 111806Z 36026KT M05/M11 A3047 RMK A01 T10471108  RH  062%=      5-min Rain = 0
KPA1 111807Z 35025G31KT M05/M11 A3047 RMK A01 T10461107  RH  063%=      5-min Rain = 0
KPA1 111808Z 35027G33KT M05/M11 A3047 RMK A01 T10461108  RH  062%=      5-min Rain = 0
KPA1 111809Z 35028G33KT M05/M11 A3047 RMK A01 T10471108  RH  062%=      5-min Rain = 0
KPA1 111810Z 00026G35KT M05/M11 A3047 RMK A01 T10471109  RH  062%=      5-min Rain = 0
KPA1 111811Z 00023G30KT M04/M11 A3047 RMK A01 T10441105  RH  063%=      5-min Rain = 0
KPA1 111812Z 36022KT M04/M10 A3047 RMK A01 T10421103  RH  063%=      5-min Rain = 0
KPA1 111813Z 35020G25KT M04/M10 A3047 RMK A01 T10421102  RH  063%=      5-min Rain = 0
KPA1 111814Z 35022KT M04/M10 A3047 RMK A01 T10391099  RH  063%=      5-min Rain = 0
KPA1 111815Z 36023G28KT M04/M10 A3047 RMK A01 T10401101  RH  063%=      5-min Rain = 0
KPA1 111816Z 35025G31KT M04/M10 A3047 RMK A01 T10421103  RH  063%=      5-min Rain = 0
KPA1 111817Z 35025G31KT M05/M11 A3047 RMK A01 T10461106  RH  063%=      5-min Rain = 0
KPA1 111818Z 35024KT M05/M11 A3047 RMK A01 T10491107  RH  064%=      5-min Rain = 0
KPA1 111819Z 35024KT M05/M10 A3047 RMK A01 T10491104  RH  065%=      5-min Rain = 0
KPA1 111820Z 34022KT M05/M10 A3047 RMK A01 T10451100  RH  066%=      5-min Rain = 0
KPA1 111821Z 34024G30KT M04/M10 A3047 RMK A01 T10441100  RH  065%=      5-min Rain = 0
KPA1 111822Z 35026G31KT M05/M10 A3047 RMK A01 T10451101  RH  065%=      5-min Rain = 0
KPA1 111823Z 35026G31KT M05/M10 A3047 RMK A01 T10481104  RH  065%=      5-min Rain = 0
KPA1 111824Z 35026KT M05/M11 A3047 RMK A01 T10501106  RH  065%=      5-min Rain = 0
KPA1 111825Z 34024KT M05/M11 A3047 RMK A01 T10521105  RH  066%=      5-min Rain = 0
KPA1 111826Z 36023G30KT M05/M10 A3047 RMK A01 T10511104  RH  067%=      5-min Rain = 0
KPA1 111827Z 00022G28KT M05/M10 A3047 RMK A01 T10491101  RH  067%=      5-min Rain = 0
KPA1 111828Z 35019G25KT M05/M10 A3047 RMK A01 T10471100  RH  067%=      5-min Rain = 0
KPA1 111829Z 35021G26KT M05/M10 A3047 RMK A01 T10451098  RH  066%=      5-min Rain = 0
KPA1 111830Z 01025G32KT M04/M10 A3048 RMK A01 T10431099  RH  065%=      5-min Rain = 0
KPA1 111831Z 35027KT M04/M10 A3048 RMK A01 T10431101  RH  064%=      5-min Rain = 0
KPA1 111832Z 36026G32KT M05/M11 A3047 RMK A01 T10461105  RH  064%=      5-min Rain = 0
KPA1 111833Z 36022G27KT M05/M11 A3047 RMK A01 T10481106  RH  064%=      5-min Rain = 0
KPA1 111834Z 36020G26KT M05/M10 A3047 RMK A01 T10451101  RH  065%=      5-min Rain = 0
KPA1 111835Z 00023KT M04/M10 A3047 RMK A01 T10411098  RH  065%=      5-min Rain = 0
KPA1 111836Z 00021G27KT M04/M10 A3047 RMK A01 T10401098  RH  064%=      5-min Rain = 0
KPA1 111837Z 35023G28KT M04/M10 A3047 RMK A01 T10391099  RH  063%=      5-min Rain = 0
KPA1 111838Z 36022G27KT M04/M10 A3047 RMK A01 T10401101  RH  062%=      5-min Rain = 0
KPA1 111839Z 35023KT M04/M10 A3047 RMK A01 T10391101  RH  062%=      5-min Rain = 0
KPA1 111840Z 36023G30KT M04/M10 A3047 RMK A01 T10401102  RH  062%=      5-min Rain = 0
KPA1 111841Z 36028KT M04/M10 A3047 RMK A01 T10411102  RH  062%=      5-min Rain = 0
KPA1 111842Z 35024KT M04/M10 A3047 RMK A01 T10431104  RH  062%=      5-min Rain = 0
KPA1 111843Z 35020KT M04/M10 A3047 RMK A01 T10401099  RH  063%=      5-min Rain = 0
KPA1 111844Z 36019G24KT M04/M10 A3047 RMK A01 T10381098  RH  063%=      5-min Rain = 0
KPA1 111845Z 35026G31KT M04/M10 A3047 RMK A01 T10381101  RH  062%=      5-min Rain = 0
KPA1 111846Z 36024G31KT M04/M11 A3047 RMK A01 T10421105  RH  061%=      5-min Rain = 0
KPA1 111847Z 00025KT M04/M10 A3047 RMK A01 T10411103  RH  062%=      5-min Rain = 0
KPA1 111848Z 36028G34KT M04/M10 A3047 RMK A01 T10391103  RH  061%=      5-min Rain = 0
KPA1 111849Z 00029KT M04/M10 A3048 RMK A01 T10381104  RH  060%=      5-min Rain = 0
KPA1 111850Z 36027G33KT M04/M11 A3047 RMK A01 T10391106  RH  060%=      5-min Rain = 0
KPA1 111851Z 36026G32KT M04/M11 A3047 RMK A01 T10401107  RH  060%=      5-min Rain = 0
KPA1 111852Z 01024G31KT M04/M11 A3047 RMK A01 T10411106  RH  060%=      5-min Rain = 0
KPA1 111853Z 34022G29KT M04/M10 A3047 RMK A01 T10391104  RH  061%=      5-min Rain = 0
KPA1 111854Z 35024KT M04/M11 A3047 RMK A01 T10401105  RH  061%=      5-min Rain = 0
KPA1 111855Z 35028G34KT M04/M11 A3047 RMK A01 T10421106  RH  061%=      5-min Rain = 0
KPA1 111856Z 35025G35KT M04/M11 A3047 RMK A01 T10421107  RH  061%=      5-min Rain = 0
KPA1 111857Z 36022G28KT M04/M11 A3047 RMK A01 T10401105  RH  061%=      5-min Rain = 0
KPA1 111858Z 00024G31KT M04/M10 A3047 RMK A01 T10371103  RH  060%=      5-min Rain = 0
KPA1 111859Z 36027G32KT M04/M11 A3047 RMK A01 T10361105  RH  059%=      5-min Rain = 0
KPA1 111900Z 36026G35KT M04/M11 A3047 RMK A01 T10361106  RH  058%=      5-min Rain = 0
KPA1 111901Z 36024G30KT M04/M11 A3047 RMK A01 T10351105  RH  058%=      5-min Rain = 0
KPA1 111902Z 00025G32KT M03/M11 A3047 RMK A01 T10331105  RH  057%=      5-min Rain = 0
KPA1 111903Z 00022G27KT M03/M11 A3047 RMK A01 T10341107  RH  057%=      5-min Rain = 0
KPA1 111904Z 35022G28KT M03/M11 A3047 RMK A01 T10321105  RH  057%=      5-min Rain = 0
KPA1 111905Z 35024G32KT M03/M10 A3046 RMK A01 T10291102  RH  057%=      5-min Rain = 0
KPA1 111906Z 00025G31KT M03/M11 A3047 RMK A01 T10281105  RH  056%=      5-min Rain = 0
KPA1 111907Z 01023KT M03/M11 A3047 RMK A01 T10301107  RH  055%=      5-min Rain = 0
KPA1 111908Z 01021G27KT M03/M11 A3046 RMK A01 T10291105  RH  056%=      5-min Rain = 0
KPA1 111909Z 01022G28KT M03/M10 A3046 RMK A01 T10251100  RH  056%=      5-min Rain = 0
KPA1 111910Z 35023G29KT M03/M10 A3046 RMK A01 T10251104  RH  055%=      5-min Rain = 0
KPA1 111911Z 00020G25KT M03/M11 A3047 RMK A01 T10271106  RH  055%=      5-min Rain = 0
KPA1 111912Z 36023G30KT M03/M10 A3047 RMK A01 T10261104  RH  055%=      5-min Rain = 0
KPA1 111913Z 00025G32KT M03/M11 A3047 RMK A01 T10281107  RH  054%=      5-min Rain = 0
KPA1 111914Z 00026KT M03/M11 A3047 RMK A01 T10301108  RH  055%=      5-min Rain = 0
KPA1 111915Z 00026G34KT M03/M11 A3047 RMK A01 T10301108  RH  055%=      5-min Rain = 0
KPA1 111916Z 00026G31KT M03/M11 A3047 RMK A01 T10311109  RH  055%=      5-min Rain = 0
KPA1 111917Z 00021KT M03/M11 A3047 RMK A01 T10311107  RH  056%=      5-min Rain = 0
KPA1 111918Z 00018KT M03/M10 A3047 RMK A01 T10281104  RH  056%=      5-min Rain = 0
KPA1 111919Z 00020KT M03/M10 A3047 RMK A01 T10251102  RH  056%=      5-min Rain = 0
KPA1 111920Z 01017G23KT M03/M10 A3047 RMK A01 T10251103  RH  055%=      5-min Rain = 0
KPA1 111921Z 36023G30KT M02/M10 A3047 RMK A01 T10231101  RH  055%=      5-min Rain = 0
KPA1 111922Z 36022G29KT M02/M11 A3047 RMK A01 T10241105  RH  054%=      5-min Rain = 0
KPA1 111923Z 01023G28KT M03/M11 A3047 RMK A01 T10251106  RH  054%=      5-min Rain = 0
KPA1 111924Z 01023G30KT M03/M11 A3047 RMK A01 T10261106  RH  054%=      5-min Rain = 0
KPA1 111925Z 01022G29KT M03/M11 A3047 RMK A01 T10271106  RH  054%=      5-min Rain = 0
KPA1 111926Z 01022G27KT M03/M11 A3047 RMK A01 T10261106  RH  054%=      5-min Rain = 0
KPA1 111927Z 36020KT M03/M11 A3047 RMK A01 T10251105  RH  054%=      5-min Rain = 0
KPA1 111928Z 36020G26KT M02/M10 A3047 RMK A01 T10221101  RH  055%=      5-min Rain = 0
KPA1 111929Z 36025G30KT M02/M10 A3047 RMK A01 T10201102  RH  053%=      5-min Rain = 0
KPA1 111930Z 35024KT M02/M11 A3047 RMK A01 T10221106  RH  053%=      5-min Rain = 0
KPA1 111931Z 00023G29KT M02/M11 A3047 RMK A01 T10231106  RH  053%=      5-min Rain = 0
KPA1 111932Z 36023KT M02/M11 A3047 RMK A01 T10231107  RH  053%=      5-min Rain = 0
KPA1 111933Z 01021G31KT M02/M11 A3047 RMK A01 T10241107  RH  053%=      5-min Rain = 0
KPA1 111934Z 36025G30KT M02/M10 A3047 RMK A01 T10211104  RH  053%=      5-min Rain = 0
KPA1 111935Z 36020G25KT M02/M11 A3047 RMK A01 T10201105  RH  052%=      5-min Rain = 0
KPA1 111936Z 36023G28KT M02/M11 A3047 RMK A01 T10201106  RH  052%=      5-min Rain = 0
KPA1 111937Z 36027G32KT M02/M11 A3047 RMK A01 T10221109  RH  051%=      5-min Rain = 0
KPA1 111938Z 35024KT M02/M11 A3046 RMK A01 T10231109  RH  052%=      5-min Rain = 0
KPA1 111939Z 35022G27KT M02/M11 A3047 RMK A01 T10241110  RH  052%=      5-min Rain = 0
KPA1 111940Z 35018G25KT M02/M11 A3047 RMK A01 T10241109  RH  052%=      5-min Rain = 0
KPA1 111941Z 36022KT M02/M11 A3047 RMK A01 T10211106  RH  052%=      5-min Rain = 0
KPA1 111942Z 01025KT M02/M11 A3047 RMK A01 T10181105  RH  052%=      5-min Rain = 0
KPA1 111943Z 00021KT M02/M11 A3047 RMK A01 T10191107  RH  051%=      5-min Rain = 0
KPA1 111944Z 36019KT M02/M11 A3047 RMK A01 T10181106  RH  051%=      5-min Rain = 0
KPA1 111945Z 36021G34KT M02/M11 A3047 RMK A01 T10181106  RH  051%=      5-min Rain = 0
KPA1 111946Z 35023G29KT M02/M11 A3047 RMK A01 T10181107  RH  051%=      5-min Rain = 0
KPA1 111947Z 35024KT M02/M11 A3047 RMK A01 T10181107  RH  051%=      5-min Rain = 0
KPA1 111948Z 36026KT M02/M11 A3047 RMK A01 T10191109  RH  050%=      5-min Rain = 0
KPA1 111949Z 35019G25KT M02/M11 A3047 RMK A01 T10211110  RH  050%=      5-min Rain = 0
KPA1 111950Z 35022KT M02/M11 A3047 RMK A01 T10191106  RH  051%=      5-min Rain = 0
KPA1 111951Z 36024G33KT M02/M11 A3047 RMK A01 T10171107  RH  050%=      5-min Rain = 0
KPA1 111952Z 35025KT M02/M11 A3047 RMK A01 T10161106  RH  050%=      5-min Rain = 0
KPA1 111953Z 00024G29KT M02/M11 A3047 RMK A01 T10151106  RH  050%=      5-min Rain = 0
KPA1 111954Z 00022G27KT M02/M11 A3047 RMK A01 T10151105  RH  050%=      5-min Rain = 0
KPA1 111955Z 00021KT M01/M10 A3047 RMK A01 T10131104  RH  050%=      5-min Rain = 0
KPA1 111956Z 36023G31KT M02/M11 A3047 RMK A01 T10151106  RH  050%=      5-min Rain = 0
KPA1 111957Z 00024KT M02/M11 A3047 RMK A01 T10161107  RH  050%=      5-min Rain = 0
KPA1 111958Z 35025G30KT M02/M11 A3047 RMK A01 T10161107  RH  050%=      5-min Rain = 0
KPA1 111959Z 36024G30KT M02/M11 A3047 RMK A01 T10161108  RH  050%=      5-min Rain = 0
KPA1 112000Z 00026KT M02/M11 A3047 RMK A01 T10171109  RH  049%=      5-min Rain = 0
KPA1 112001Z 01024G29KT M02/M11 A3047 RMK A01 T10191110  RH  050%=      5-min Rain = 0
KPA1 112002Z 00024KT M02/M11 A3047 RMK A01 T10201110  RH  050%=      5-min Rain = 0
KPA1 112003Z 35022G27KT M02/M11 A3046 RMK A01 T10201110  RH  050%=      5-min Rain = 0
KPA1 112004Z 36021KT M02/M11 A3047 RMK A01 T10191109  RH  050%=      5-min Rain = 0
KPA1 112005Z 01025KT M02/M11 A3047 RMK A01 T10181109  RH  050%=      5-min Rain = 0
KPA1 112006Z 01023KT M02/M11 A3047 RMK A01 T10181109  RH  050%=      5-min Rain = 0
KPA1 112007Z 01021KT M02/M11 A3047 RMK A01 T10171108  RH  050%=      5-min Rain = 0
KPA1 112008Z 01020KT M02/M11 A3047 RMK A01 T10151106  RH  050%=      5-min Rain = 0
KPA1 112009Z 01020KT M02/M11 A3047 RMK A01 T10151108  RH  049%=      5-min Rain = 0
KPA1 112010Z 35022G27KT M02/M11 A3047 RMK A01 T10161108  RH  049%=      5-min Rain = 0
KPA1 112011Z 36023G28KT M02/M11 A3047 RMK A01 T10151107  RH  049%=      5-min Rain = 0
KPA1 112012Z 35025KT M02/M11 A3047 RMK A01 T10151108  RH  049%=      5-min Rain = 0
KPA1 112013Z 35026G31KT M02/M11 A3046 RMK A01 T10151108  RH  049%=      5-min Rain = 0
KPA1 112014Z 36023G29KT M02/M11 A3046 RMK A01 T10171110  RH  049%=      5-min Rain = 0
KPA1 112015Z 01021G26KT M02/M11 A3047 RMK A01 T10171109  RH  050%=      5-min Rain = 0
KPA1 112016Z 36022KT M02/M11 A3047 RMK A01 T10171108  RH  050%=      5-min Rain = 0
KPA1 112017Z 00020G25KT M02/M11 A3047 RMK A01 T10171108  RH  050%=      5-min Rain = 0
KPA1 112018Z 01025G30KT M02/M11 A3047 RMK A01 T10171108  RH  050%=      5-min Rain = 0
KPA1 112019Z 01023KT M02/M11 A3047 RMK A01 T10201112  RH  049%=      5-min Rain = 0
KPA1 112020Z 36019KT M02/M11 A3047 RMK A01 T10211110  RH  050%=      5-min Rain = 0
KPA1 112021Z 35020G27KT M02/M11 A3047 RMK A01 T10201109  RH  051%=      5-min Rain = 0
KPA1 112022Z 35020G26KT M02/M11 A3047 RMK A01 T10201109  RH  051%=      5-min Rain = 0
KPA1 112023Z 35022G30KT M02/M11 A3047 RMK A01 T10201110  RH  050%=      5-min Rain = 0
KPA1 112024Z 36024KT M02/M11 A3047 RMK A01 T10201110  RH  050%=      5-min Rain = 0
KPA1 112025Z 01022G30KT M02/M11 A3047 RMK A01 T10211110  RH  050%=      5-min Rain = 0
KPA1 112026Z 36023G29KT M02/M11 A3047 RMK A01 T10211109  RH  051%=      5-min Rain = 0
KPA1 112027Z 35021G30KT M02/M11 A3047 RMK A01 T10201109  RH  051%=      5-min Rain = 0
KPA1 112028Z 35023G31KT M02/M11 A3047 RMK A01 T10171106  RH  051%=      5-min Rain = 0
KPA1 112029Z 35025KT M02/M11 A3047 RMK A01 T10171108  RH  050%=      5-min Rain = 0
KPA1 112030Z 34026KT M02/M11 A3047 RMK A01 T10181108  RH  050%=      5-min Rain = 0
KPA1 112031Z 34022KT M02/M11 A3047 RMK A01 T10191110  RH  050%=      5-min Rain = 0
KPA1 112032Z 35023KT M02/M11 A3047 RMK A01 T10181108  RH  050%=      5-min Rain = 0
KPA1 112033Z 35019KT M02/M11 A3047 RMK A01 T10181108  RH  050%=      5-min Rain = 0
KPA1 112034Z 36017G23KT M02/M11 A3047 RMK A01 T10151105  RH  050%=      5-min Rain = 0
KPA1 112035Z 00022G29KT M01/M11 A3047 RMK A01 T10141105  RH  050%=      5-min Rain = 0
KPA1 112036Z 00024KT M02/M11 A3047 RMK A01 T10151108  RH  049%=      5-min Rain = 0
KPA1 112037Z 35024KT M02/M11 A3047 RMK A01 T10181111  RH  049%=      5-min Rain = 0
KPA1 112038Z 00020KT M02/M11 A3047 RMK A01 T10191110  RH  050%=      5-min Rain = 0
KPA1 112039Z 01018KT M02/M11 A3047 RMK A01 T10181108  RH  050%=      5-min Rain = 0
KPA1 112040Z 01020G26KT M02/M11 A3047 RMK A01 T10161105  RH  050%=      5-min Rain = 0
KPA1 112041Z 01024G30KT M02/M11 A3047 RMK A01 T10151106  RH  050%=      5-min Rain = 0
KPA1 112042Z 36024G30KT M02/M11 A3047 RMK A01 T10161107  RH  050%=      5-min Rain = 0
KPA1 112043Z 35023KT M02/M11 A3047 RMK A01 T10161108  RH  049%=      5-min Rain = 0
KPA1 112044Z 35021G27KT M02/M11 A3046 RMK A01 T10161107  RH  050%=      5-min Rain = 0
KPA1 112045Z 35022KT M02/M11 A3046 RMK A01 T10151107  RH  049%=      5-min Rain = 0
KPA1 112046Z 36019KT M02/M11 A3046 RMK A01 T10161109  RH  049%=      5-min Rain = 0
KPA1 112047Z 00020G26KT M02/M11 A3046 RMK A01 T10161109  RH  049%=      5-min Rain = 0
KPA1 112048Z 36021G26KT M02/M11 A3047 RMK A01 T10151107  RH  049%=      5-min Rain = 0
KPA1 112049Z 01023G29KT M01/M11 A3047 RMK A01 T10131106  RH  049%=      5-min Rain = 0
KPA1 112050Z 01024G30KT M02/M11 A3047 RMK A01 T10151110  RH  048%=      5-min Rain = 0
KPA1 112051Z 00024G31KT M02/M11 A3046 RMK A01 T10181113  RH  049%=      5-min Rain = 0
KPA1 112052Z 36019KT M02/M11 A3047 RMK A01 T10191112  RH  049%=      5-min Rain = 0
KPA1 112053Z 36018G26KT M02/M11 A3046 RMK A01 T10191111  RH  049%=      5-min Rain = 0
KPA1 112054Z 00026KT M02/M11 A3047 RMK A01 T10191111  RH  049%=      5-min Rain = 0
KPA1 112055Z 36024KT M02/M11 A3047 RMK A01 T10211114  RH  049%=      5-min Rain = 0
KPA1 112056Z 35021KT M02/M12 A3047 RMK A01 T10231115  RH  049%=      5-min Rain = 0
KPA1 112057Z 36018KT M02/M11 A3047 RMK A01 T10211113  RH  050%=      5-min Rain = 0
KPA1 112058Z 01024G31KT M02/M11 A3047 RMK A01 T10181110  RH  049%=      5-min Rain = 0
KPA1 112059Z 36025G31KT M02/M11 A3047 RMK A01 T10171112  RH  048%=      5-min Rain = 0
KPA1 112100Z 36027G33KT M02/M11 A3047 RMK A01 T10181114  RH  048%=      5-min Rain = 0
KPA1 112101Z 36023KT M02/M11 A3047 RMK A01 T10191114  RH  048%=      5-min Rain = 0
KPA1 112102Z 35024KT M02/M11 A3047 RMK A01 T10181114  RH  048%=      5-min Rain = 0
KPA1 112103Z 36024KT M02/M11 A3047 RMK A01 T10181114  RH  048%=      5-min Rain = 0
KPA1 112104Z 00024G29KT M02/M12 A3047 RMK A01 T10181115  RH  048%=      5-min Rain = 0
KPA1 112105Z 00024G30KT M02/M12 A3047 RMK A01 T10191116  RH  048%=      5-min Rain = 0
KPA1 112106Z 00022G30KT M02/M12 A3047 RMK A01 T10211117  RH  048%=      5-min Rain = 0
KPA1 112107Z 01026KT M02/M12 A3047 RMK A01 T10221116  RH  049%=      5-min Rain = 0
KPA1 112108Z 35026G31KT M02/M12 A3047 RMK A01 T10231116  RH  049%=      5-min Rain = 0
KPA1 112109Z 35022KT M03/M12 A3047 RMK A01 T10251117  RH  049%=      5-min Rain = 0
KPA1 112110Z 36023KT M03/M12 A3047 RMK A01 T10251117  RH  049%=      5-min Rain = 0
KPA1 112111Z 00023G31KT M02/M12 A3048 RMK A01 T10241117  RH  049%=      5-min Rain = 0
KPA1 112112Z 36022G33KT M02/M12 A3047 RMK A01 T10231115  RH  049%=      5-min Rain = 0
KPA1 112113Z 01023KT M02/M11 A3047 RMK A01 T10211114  RH  049%=      5-min Rain = 0
KPA1 112114Z 01019G24KT M02/M12 A3047 RMK A01 T10201115  RH  048%=      5-min Rain = 0
KPA1 112115Z 36022KT M02/M11 A3047 RMK A01 T10181114  RH  048%=      5-min Rain = 0
KPA1 112116Z 35022KT M02/M12 A3047 RMK A01 T10181116  RH  047%=      5-min Rain = 0
KPA1 112117Z 35019KT M02/M12 A3048 RMK A01 T10191117  RH  047%=      5-min Rain = 0
KPA1 112118Z 35021G29KT M02/M12 A3047 RMK A01 T10191117  RH  047%=      5-min Rain = 0
KPA1 112119Z 36020G26KT M02/M12 A3048 RMK A01 T10191119  RH  046%=      5-min Rain = 0
KPA1 112120Z 00022KT M02/M12 A3048 RMK A01 T10201119  RH  047%=      5-min Rain = 0
KPA1 112121Z 00018KT M02/M12 A3048 RMK A01 T10191118  RH  047%=      5-min Rain = 0
KPA1 112122Z 36022G28KT M02/M12 A3048 RMK A01 T10201119  RH  047%=      5-min Rain = 0
KPA1 112123Z 35023KT M02/M12 A3048 RMK A01 T10241124  RH  046%=      5-min Rain = 0
KPA1 112124Z 00023G28KT M03/M13 A3048 RMK A01 T10251125  RH  046%=      5-min Rain = 0
KPA1 112125Z 01021KT M03/M12 A3048 RMK A01 T10251123  RH  047%=      5-min Rain = 0
KPA1 112126Z 01019G25KT M02/M12 A3048 RMK A01 T10231122  RH  047%=      5-min Rain = 0
KPA1 112127Z 00022G27KT M02/M12 A3048 RMK A01 T10221122  RH  046%=      5-min Rain = 0
KPA1 112128Z 00020G26KT M02/M12 A3048 RMK A01 T10221124  RH  046%=      5-min Rain = 0
KPA1 112129Z 01023G28KT M02/M13 A3049 RMK A01 T10211125  RH  045%=      5-min Rain = 0
KPA1 112130Z 00024KT M02/M13 A3049 RMK A01 T10221126  RH  045%=      5-min Rain = 0
KPA1 112131Z 35020KT M02/M13 A3049 RMK A01 T10241129  RH  044%=      5-min Rain = 0
KPA1 112132Z 01020KT M02/M13 A3049 RMK A01 T10241129  RH  044%=      5-min Rain = 0
KPA1 112133Z 01020KT M02/M13 A3048 RMK A01 T10241129  RH  044%=      5-min Rain = 0
KPA1 112134Z 02020G25KT M02/M13 A3049 RMK A01 T10231128  RH  044%=      5-min Rain = 0
KPA1 112135Z 01019KT M02/M13 A3049 RMK A01 T10241129  RH  044%=      5-min Rain = 0
KPA1 112136Z 01019KT M03/M13 A3049 RMK A01 T10251128  RH  045%=      5-min Rain = 0
KPA1 112137Z 36018G23KT M03/M13 A3049 RMK A01 T10251127  RH  045%=      5-min Rain = 0
KPA1 112138Z 01021G27KT M02/M13 A3049 RMK A01 T10231125  RH  045%=      5-min Rain = 0
KPA1 112139Z 01019KT M02/M13 A3049 RMK A01 T10231125  RH  045%=      5-min Rain = 0
KPA1 112140Z 01019KT M02/M13 A3049 RMK A01 T10241127  RH  045%=      5-min Rain = 0
KPA1 112141Z 02018KT M02/M13 A3049 RMK A01 T10241126  RH  045%=      5-min Rain = 0
KPA1 112142Z 01020G25KT M02/M13 A3049 RMK A01 T10231125  RH  045%=      5-min Rain = 0
KPA1 112143Z 02023KT M02/M13 A3049 RMK A01 T10231126  RH  045%=      5-min Rain = 0
KPA1 112144Z 01019G24KT M03/M13 A3049 RMK A01 T10261129  RH  045%=      5-min Rain = 0
KPA1 112145Z 01015G20KT M03/M13 A3049 RMK A01 T10271128  RH  046%=      5-min Rain = 0
KPA1 112146Z 00018G24KT M03/M13 A3049 RMK A01 T10261126  RH  046%=      5-min Rain = 0
KPA1 112147Z 00022KT M03/M13 A3049 RMK A01 T10261125  RH  046%=      5-min Rain = 0
KPA1 112148Z 36022KT M03/M12 A3049 RMK A01 T10261124  RH  047%=      5-min Rain = 0
KPA1 112149Z 00021KT M03/M13 A3049 RMK A01 T10271125  RH  047%=      5-min Rain = 0
KPA1 112150Z 36018KT M03/M13 A3049 RMK A01 T10261125  RH  047%=      5-min Rain = 0
KPA1 112151Z 36015KT M03/M12 A3049 RMK A01 T10251124  RH  047%=      5-min Rain = 0
KPA1 112152Z 35014G21KT M02/M12 A3049 RMK A01 T10231121  RH  047%=      5-min Rain = 0
KPA1 112153Z 35022G28KT M02/M12 A3049 RMK A01 T10221122  RH  046%=      5-min Rain = 0
KPA1 112154Z 35022KT M02/M13 A3049 RMK A01 T10241126  RH  045%=      5-min Rain = 0
KPA1 112155Z 36021KT M03/M13 A3049 RMK A01 T10251128  RH  045%=      5-min Rain = 0
KPA1 112156Z 01019KT M03/M13 A3049 RMK A01 T10251127  RH  046%=      5-min Rain = 0
KPA1 112157Z 01021G26KT M03/M13 A305 RMK A01 T10251127  RH  046%=      5-min Rain = 0
KPA1 112158Z 35020KT M03/M13 A3049 RMK A01 T10261128  RH  045%=      5-min Rain = 0
KPA1 112159Z 00019G24KT M03/M13 A3049 RMK A01 T10261129  RH  045%=      5-min Rain = 0
KPA1 112200Z 36015KT M03/M13 A3049 RMK A01 T10261130  RH  044%=      5-min Rain = 0
KPA1 112201Z 36015KT M03/M13 A3049 RMK A01 T10251130  RH  044%=      5-min Rain = 0
KPA1 112202Z 36017KT M03/M13 A3049 RMK A01 T10251132  RH  044%=      5-min Rain = 0
KPA1 112203Z 00015G22KT M03/M13 A3049 RMK A01 T10271134  RH  043%=      5-min Rain = 0
KPA1 112204Z 00027KT M03/M14 A3049 RMK A01 T10271135  RH  043%=      5-min Rain = 0
KPA1 112205Z 36026KT M03/M14 A305 RMK A01 T10291138  RH  043%=      5-min Rain = 0
KPA1 112206Z 36023KT M03/M14 A305 RMK A01 T10301140  RH  042%=      5-min Rain = 0
KPA1 112207Z 35021G27KT M03/M14 A305 RMK A01 T10301141  RH  042%=      5-min Rain = 0
KPA1 112208Z 36021KT M03/M14 A305 RMK A01 T10301141  RH  042%=      5-min Rain = 0
KPA1 112209Z 00024G30KT M03/M14 A305 RMK A01 T10301140  RH  043%=      5-min Rain = 0
KPA1 112210Z 36023KT M03/M14 A305 RMK A01 T10311140  RH  043%=      5-min Rain = 0
KPA1 112211Z 36023G28KT M03/M14 A305 RMK A01 T10311140  RH  043%=      5-min Rain = 0
KPA1 112212Z 36018G23KT M03/M14 A305 RMK A01 T10311140  RH  043%=      5-min Rain = 0
KPA1 112213Z 00021G30KT M03/M14 A305 RMK A01 T10291139  RH  042%=      5-min Rain = 0
KPA1 112214Z 01020G26KT M03/M14 A305 RMK A01 T10291140  RH  042%=      5-min Rain = 0
KPA1 112215Z 36021G29KT M03/M14 A305 RMK A01 T10291141  RH  042%=      5-min Rain = 0
KPA1 112216Z 00025KT M03/M14 A305 RMK A01 T10301143  RH  041%=      5-min Rain = 0
KPA1 112217Z 00021G26KT M03/M15 A305 RMK A01 T10311145  RH  041%=      5-min Rain = 0
KPA1 112218Z 00021G26KT M03/M14 A305 RMK A01 T10311144  RH  041%=      5-min Rain = 0
KPA1 112219Z 36020KT M03/M14 A305 RMK A01 T10321144  RH  042%=      5-min Rain = 0
KPA1 112220Z 00020KT M03/M14 A305 RMK A01 T10321144  RH  042%=      5-min Rain = 0
KPA1 112221Z 00016KT M03/M14 A305 RMK A01 T10321144  RH  042%=      5-min Rain = 0
KPA1 112222Z 01019G26KT M03/M14 A305 RMK A01 T10311141  RH  042%=      5-min Rain = 0
KPA1 112223Z 01018KT M03/M14 A305 RMK A01 T10301141  RH  042%=      5-min Rain = 0
KPA1 112224Z 01016KT M03/M14 A305 RMK A01 T10311142  RH  042%=      5-min Rain = 0
KPA1 112225Z 00014KT M03/M14 A305 RMK A01 T10311141  RH  042%=      5-min Rain = 0
KPA1 112226Z 01019G24KT M03/M14 A305 RMK A01 T10311141  RH  042%=      5-min Rain = 0
KPA1 112227Z 01017KT M03/M14 A305 RMK A01 T10321143  RH  042%=      5-min Rain = 0
KPA1 112228Z 01019KT M03/M14 A305 RMK A01 T10331143  RH  042%=      5-min Rain = 0
KPA1 112229Z 00020KT M03/M14 A305 RMK A01 T10341143  RH  043%=      5-min Rain = 0
KPA1 112230Z 36019KT M03/M14 A305 RMK A01 T10341143  RH  043%=      5-min Rain = 0
KPA1 112231Z 35017KT M03/M14 A305 RMK A01 T10341143  RH  043%=      5-min Rain = 0
KPA1 112232Z 35015KT M03/M14 A305 RMK A01 T10341142  RH  043%=      5-min Rain = 0
KPA1 112233Z 36014KT M03/M14 A305 RMK A01 T10321139  RH  043%=      5-min Rain = 0
KPA1 112234Z 01013G18KT M03/M14 A305 RMK A01 T10311139  RH  043%=      5-min Rain = 0
KPA1 112235Z 01018G23KT M03/M14 A305 RMK A01 T10311138  RH  043%=      5-min Rain = 0
KPA1 112236Z 01018KT M03/M14 A305 RMK A01 T10301137  RH  044%=      5-min Rain = 0
KPA1 112237Z 36015KT M03/M14 A305 RMK A01 T10301136  RH  044%=      5-min Rain = 0
KPA1 112238Z 00015KT M03/M14 A305 RMK A01 T10311136  RH  044%=      5-min Rain = 0
KPA1 112239Z 00020G25KT M03/M14 A305 RMK A01 T10311135  RH  044%=      5-min Rain = 0
KPA1 112240Z 01015KT M03/M13 A305 RMK A01 T10301134  RH  045%=      5-min Rain = 0
KPA1 112241Z 01018KT M03/M13 A305 RMK A01 T10301133  RH  045%=      5-min Rain = 0
KPA1 112242Z 00015KT M03/M13 A305 RMK A01 T10301132  RH  045%=      5-min Rain = 0
KPA1 112243Z 36017G25KT M03/M13 A3051 RMK A01 T10291132  RH  045%=      5-min Rain = 0
KPA1 112244Z 01018G25KT M03/M13 A3051 RMK A01 T10291131  RH  045%=      5-min Rain = 0
KPA1 112245Z 00021G26KT M03/M13 A3051 RMK A01 T10291132  RH  045%=      5-min Rain = 0
KPA1 112246Z 00022KT M03/M14 A3051 RMK A01 T10311135  RH  044%=      5-min Rain = 0
KPA1 112247Z 00022G28KT M03/M14 A3051 RMK A01 T10311136  RH  044%=      5-min Rain = 0
KPA1 112248Z 00021G26KT M03/M14 A3051 RMK A01 T10321136  RH  044%=      5-min Rain = 0
KPA1 112249Z 00018KT M03/M14 A3051 RMK A01 T10311137  RH  044%=      5-min Rain = 0
KPA1 112250Z 00019G24KT M03/M14 A3051 RMK A01 T10311137  RH  044%=      5-min Rain = 0
KPA1 112251Z 00017KT M03/M14 A3051 RMK A01 T10311137  RH  044%=      5-min Rain = 0
KPA1 112252Z 00021G26KT M03/M14 A3051 RMK A01 T10311137  RH  044%=      5-min Rain = 0
KPA1 112253Z 36019KT M03/M14 A3051 RMK A01 T10321139  RH  043%=      5-min Rain = 0
KPA1 112254Z 35019KT M03/M14 A3051 RMK A01 T10321141  RH  043%=      5-min Rain = 0
KPA1 112255Z 36021G26KT M03/M14 A3051 RMK A01 T10331141  RH  043%=      5-min Rain = 0
KPA1 112256Z 36017KT M03/M14 A3051 RMK A01 T10331141  RH  043%=      5-min Rain = 0
KPA1 112257Z 00017KT M03/M14 A3051 RMK A01 T10331141  RH  043%=      5-min Rain = 0
KPA1 112258Z 01019KT M03/M14 A3051 RMK A01 T10321140  RH  043%=      5-min Rain = 0
KPA1 112259Z 01017KT M03/M14 A3051 RMK A01 T10321141  RH  043%=      5-min Rain = 0
KPA1 112300Z 01016KT M03/M14 A3051 RMK A01 T10321140  RH  043%=      5-min Rain = 0
KPA1 112301Z 01018KT M03/M14 A3051 RMK A01 T10331140  RH  043%=      5-min Rain = 0
KPA1 112302Z 01021KT M03/M14 A3051 RMK A01 T10331141  RH  043%=      5-min Rain = 0
KPA1 112303Z 01021KT M03/M14 A3051 RMK A01 T10341142  RH  043%=      5-min Rain = 0
KPA1 112304Z 00017KT M03/M14 A3051 RMK A01 T10341142  RH  043%=      5-min Rain = 0
KPA1 112305Z 00018KT M04/M14 A3051 RMK A01 T10351142  RH  043%=      5-min Rain = 0
KPA1 112306Z 01018KT M04/M14 A3051 RMK A01 T10351141  RH  044%=      5-min Rain = 0
KPA1 112307Z 00018G24KT M04/M14 A3051 RMK A01 T10351141  RH  044%=      5-min Rain = 0
KPA1 112308Z 01016KT M03/M14 A3052 RMK A01 T10341140  RH  044%=      5-min Rain = 0
KPA1 112309Z 00019KT M04/M14 A3052 RMK A01 T10351141  RH  044%=      5-min Rain = 0
KPA1 112310Z 00020G25KT M04/M14 A3052 RMK A01 T10351141  RH  044%=      5-min Rain = 0
KPA1 112311Z 01013G18KT M04/M14 A3052 RMK A01 T10351141  RH  044%=      5-min Rain = 0
KPA1 112312Z 00017G22KT M04/M14 A3052 RMK A01 T10351141  RH  044%=      5-min Rain = 0
KPA1 112313Z 01013KT M04/M14 A3052 RMK A01 T10361141  RH  044%=      5-min Rain = 0
KPA1 112314Z 01015KT M04/M14 A3052 RMK A01 T10361140  RH  044%=      5-min Rain = 0
KPA1 112315Z 01018KT M04/M14 A3052 RMK A01 T10351140  RH  044%=      5-min Rain = 0
KPA1 112316Z 00016KT M04/M14 A3052 RMK A01 T10351140  RH  044%=      5-min Rain = 0
KPA1 112317Z 35015KT M04/M14 A3053 RMK A01 T10361140  RH  044%=      5-min Rain = 0
KPA1 112318Z 36014KT M04/M14 A3053 RMK A01 T10371141  RH  044%=      5-min Rain = 0
KPA1 112319Z 36014KT M04/M14 A3053 RMK A01 T10371141  RH  044%=      5-min Rain = 0
KPA1 112320Z 01014KT M04/M14 A3053 RMK A01 T10371141  RH  044%=      5-min Rain = 0
KPA1 112321Z 00013KT M04/M14 A3053 RMK A01 T10371140  RH  045%=      5-min Rain = 0
KPA1 112322Z 00014KT M04/M14 A3053 RMK A01 T10381139  RH  045%=      5-min Rain = 0
KPA1 112323Z 00013KT M04/M14 A3053 RMK A01 T10381139  RH  045%=      5-min Rain = 0
KPA1 112324Z 36014KT M04/M14 A3053 RMK A01 T10381140  RH  045%=      5-min Rain = 0
KPA1 112325Z 01012KT M04/M14 A3053 RMK A01 T10381140  RH  045%=      5-min Rain = 0
KPA1 112326Z 00013KT M04/M14 A3053 RMK A01 T10381139  RH  045%=      5-min Rain = 0
KPA1 112327Z 01013KT M04/M14 A3053 RMK A01 T10391140  RH  045%=      5-min Rain = 0
KPA1 112328Z 00017KT M04/M14 A3053 RMK A01 T10391140  RH  046%=      5-min Rain = 0
KPA1 112329Z 00016KT M04/M14 A3053 RMK A01 T10391141  RH  045%=      5-min Rain = 0
KPA1 112330Z 01020G25KT M04/M14 A3053 RMK A01 T10391141  RH  045%=      5-min Rain = 0
KPA1 112331Z 01017G24KT M04/M14 A3053 RMK A01 T10401142  RH  045%=      5-min Rain = 0
KPA1 112332Z 01014KT M04/M14 A3053 RMK A01 T10401142  RH  045%=      5-min Rain = 0
KPA1 112333Z 01014KT M04/M14 A3053 RMK A01 T10401141  RH  045%=      5-min Rain = 0
KPA1 112334Z 00016KT M04/M14 A3053 RMK A01 T10401141  RH  046%=      5-min Rain = 0
KPA1 112335Z 01015KT M04/M14 A3053 RMK A01 T10401141  RH  046%=      5-min Rain = 0
KPA1 112336Z 00016KT M04/M14 A3053 RMK A01 T10411141  RH  046%=      5-min Rain = 0
KPA1 112337Z 01015G22KT M04/M14 A3053 RMK A01 T10411140  RH  046%=      5-min Rain = 0
KPA1 112338Z 36017KT M04/M14 A3053 RMK A01 T10411140  RH  046%=      5-min Rain = 0
KPA1 112339Z 00014KT M04/M14 A3053 RMK A01 T10411140  RH  046%=      5-min Rain = 0
KPA1 112340Z 36013KT M04/M14 A3053 RMK A01 T10411140  RH  046%=      5-min Rain = 0
KPA1 112341Z 00012G18KT M04/M14 A3053 RMK A01 T10421140  RH  046%=      5-min Rain = 0
KPA1 112342Z 01014KT M04/M14 A3053 RMK A01 T10421140  RH  047%=      5-min Rain = 0
KPA1 112343Z 01013KT M04/M14 A3054 RMK A01 T10421139  RH  047%=      5-min Rain = 0
KPA1 112344Z 00011KT M04/M14 A3054 RMK A01 T10421139  RH  047%=      5-min Rain = 0
KPA1 112345Z 00014KT M04/M14 A3054 RMK A01 T10421139  RH  047%=      5-min Rain = 0
KPA1 112346Z 01012KT M04/M14 A3054 RMK A01 T10431139  RH  047%=      5-min Rain = 0
KPA1 112347Z 01013G19KT M04/M14 A3054 RMK A01 T10431139  RH  047%=      5-min Rain = 0
KPA1 112348Z 00014KT M04/M14 A3054 RMK A01 T10431141  RH  046%=      5-min Rain = 0
KPA1 112349Z 00014KT M04/M14 A3054 RMK A01 T10431141  RH  046%=      5-min Rain = 0
KPA1 112350Z 36015KT M04/M14 A3054 RMK A01 T10431141  RH  046%=      5-min Rain = 0
KPA1 112351Z 00016KT M04/M14 A3054 RMK A01 T10431141  RH  046%=      5-min Rain = 0
KPA1 112352Z 00014KT M04/M14 A3054 RMK A01 T10431142  RH  046%=      5-min Rain = 0
KPA1 112353Z 01013KT M04/M14 A3054 RMK A01 T10431141  RH  046%=      5-min Rain = 0
KPA1 112354Z 01015KT M04/M14 A3054 RMK A01 T10431141  RH  046%=      5-min Rain = 0
KPA1 112355Z 01014KT M04/M14 A3054 RMK A01 T10431142  RH  046%=      5-min Rain = 0
KPA1 112356Z 01012KT M04/M14 A3054 RMK A01 T10431142  RH  046%=      5-min Rain = 0
KPA1 112357Z 01015KT M04/M14 A3055 RMK A01 T10441142  RH  046%=      5-min Rain = 0
KPA1 112358Z 00015KT M04/M14 A3055 RMK A01 T10441143  RH  046%=      5-min Rain = 0
KPA1 112359Z 00014KT M05/M14 A3055 RMK A01 T10451143  RH  046%=      5-min Rain = 0
KPA1 120000Z 00012KT M05/M14 A3055 RMK A01 T10451144  RH  046%=      5-min Rain = 0
KPA1 120001Z 01014G19KT M05/M14 A3055 RMK A01 T10451144  RH  046%=      5-min Rain = 0
KPA1 120002Z 01017G23KT M05/M15 A3055 RMK A01 T10461145  RH  046%=      5-min Rain = 0
KPA1 120003Z 01014KT M05/M15 A3055 RMK A01 T10461146  RH  046%=      5-min Rain = 0
KPA1 120004Z 01015KT M05/M15 A3055 RMK A01 T10461147  RH  045%=      5-min Rain = 0
KPA1 120005Z 00014KT M05/M15 A3055 RMK A01 T10461146  RH  045%=      5-min Rain = 0
KPA1 120006Z 00014KT M05/M15 A3055 RMK A01 T10461146  RH  046%=      5-min Rain = 0
KPA1 120007Z 00012KT M05/M15 A3055 RMK A01 T10461145  RH  046%=      5-min Rain = 0
KPA1 120008Z 00012KT M05/M15 A3055 RMK A01 T10471145  RH  046%=      5-min Rain = 0
KPA1 120009Z 36011KT M05/M15 A3056 RMK A01 T10471145  RH  046%=      5-min Rain = 0
KPA1 120010Z 36012KT M05/M15 A3056 RMK A01 T10471145  RH  047%=      5-min Rain = 0
KPA1 120011Z 00011KT M05/M15 A3056 RMK A01 T10481145  RH  047%=      5-min Rain = 0
KPA1 120012Z 36014KT M05/M15 A3056 RMK A01 T10481145  RH  047%=      5-min Rain = 0
KPA1 120013Z 00012KT M05/M15 A3056 RMK A01 T10481145  RH  047%=      5-min Rain = 0
KPA1 120014Z 36016KT M05/M15 A3056 RMK A01 T10481145  RH  046%=      5-min Rain = 0
KPA1 120015Z 36015G21KT M05/M15 A3056 RMK A01 T10481147  RH  046%=      5-min Rain = 0
KPA1 120016Z 36016KT M05/M15 A3056 RMK A01 T10481147  RH  046%=      5-min Rain = 0
KPA1 120017Z 00013KT M05/M15 A3056 RMK A01 T10481148  RH  045%=      5-min Rain = 0
KPA1 120018Z 36011KT M05/M15 A3056 RMK A01 T10481148  RH  046%=      5-min Rain = 0
KPA1 120019Z 00012KT M05/M15 A3056 RMK A01 T10491148  RH  046%=      5-min Rain = 0
KPA1 120020Z 01012KT M05/M15 A3056 RMK A01 T10491147  RH  046%=      5-min Rain = 0
KPA1 120021Z 00014KT M05/M15 A3056 RMK A01 T10491147  RH  046%=      5-min Rain = 0
KPA1 120022Z 36012KT M05/M15 A3056 RMK A01 T10491147  RH  046%=      5-min Rain = 0
KPA1 120023Z 00011KT M05/M15 A3056 RMK A01 T10491147  RH  046%=      5-min Rain = 0
KPA1 120024Z 00012KT M05/M15 A3057 RMK A01 T10501146  RH  047%=      5-min Rain = 0
KPA1 120025Z 00013KT M05/M15 A3057 RMK A01 T10501146  RH  047%=      5-min Rain = 0
KPA1 120026Z 00012KT M05/M15 A3057 RMK A01 T10501146  RH  047%=      5-min Rain = 0
KPA1 120027Z 00011KT M05/M15 A3057 RMK A01 T10501145  RH  047%=      5-min Rain = 0
KPA1 120028Z 36009KT M05/M15 A3057 RMK A01 T10501145  RH  047%=      5-min Rain = 0
KPA1 120029Z 36009KT M05/M15 A3057 RMK A01 T10511145  RH  048%=      5-min Rain = 0
KPA1 120030Z 01010KT M05/M14 A3057 RMK A01 T10511144  RH  048%=      5-min Rain = 0
KPA1 120031Z 00011KT M05/M14 A3057 RMK A01 T10521144  RH  048%=      5-min Rain = 0
KPA1 120032Z 35010KT M05/M14 A3057 RMK A01 T10521144  RH  048%=      5-min Rain = 0
KPA1 120033Z 36011KT M05/M14 A3057 RMK A01 T10521144  RH  048%=      5-min Rain = 0
KPA1 120034Z 00010KT M05/M14 A3057 RMK A01 T10521144  RH  049%=      5-min Rain = 0
KPA1 120035Z 36011KT M05/M14 A3057 RMK A01 T10521144  RH  048%=      5-min Rain = 0
KPA1 120036Z 36010KT M05/M14 A3057 RMK A01 T10521144  RH  048%=      5-min Rain = 0
KPA1 120037Z 00010KT M05/M15 A3057 RMK A01 T10521145  RH  048%=      5-min Rain = 0
KPA1 120038Z 01008KT M05/M14 A3057 RMK A01 T10521144  RH  048%=      5-min Rain = 0
KPA1 120039Z 01009KT M05/M14 A3057 RMK A01 T10521143  RH  049%=      5-min Rain = 0
KPA1 120040Z 01008KT M05/M14 A3057 RMK A01 T10531143  RH  049%=      5-min Rain = 0
KPA1 120041Z 01008KT M05/M14 A3057 RMK A01 T10541142  RH  050%=      5-min Rain = 0
KPA1 120042Z 00007KT M05/M14 A3057 RMK A01 T10541142  RH  050%=      5-min Rain = 0
KPA1 120043Z 01008KT M05/M14 A3057 RMK A01 T10541142  RH  050%=      5-min Rain = 0
KPA1 120044Z 00010KT M05/M14 A3057 RMK A01 T10541141  RH  050%=      5-min Rain = 0
KPA1 120045Z 01010KT M05/M14 A3057 RMK A01 T10541142  RH  050%=      5-min Rain = 0
KPA1 120046Z 00010KT M05/M14 A3057 RMK A01 T10541142  RH  050%=      5-min Rain = 0
KPA1 120047Z 01010KT M05/M14 A3057 RMK A01 T10541142  RH  050%=      5-min Rain = 0
KPA1 120048Z 01010KT M05/M14 A3057 RMK A01 T10541142  RH  050%=      5-min Rain = 0
KPA1 120049Z 01010KT M05/M14 A3057 RMK A01 T10541142  RH  050%=      5-min Rain = 0
KPA1 120050Z 35011KT M05/M14 A3057 RMK A01 T10541142  RH  050%=      5-min Rain = 0
KPA1 120051Z 00011KT M05/M14 A3057 RMK A01 T10541142  RH  050%=      5-min Rain = 0
KPA1 120052Z 00011KT M05/M14 A3057 RMK A01 T10541142  RH  050%=      5-min Rain = 0
KPA1 120053Z 00010KT M05/M14 A3057 RMK A01 T10541142  RH  050%=      5-min Rain = 0
KPA1 120054Z 00010KT M05/M14 A3057 RMK A01 T10541142  RH  050%=      5-min Rain = 0
KPA1 120055Z 00011KT M06/M14 A3057 RMK A01 T10551142  RH  050%=      5-min Rain = 0
KPA1 120056Z 00014KT M05/M14 A3057 RMK A01 T10541142  RH  050%=      5-min Rain = 0
KPA1 120057Z 00011KT M05/M14 A3057 RMK A01 T10541143  RH  050%=      5-min Rain = 0
KPA1 120058Z 00011KT M05/M14 A3057 RMK A01 T10541143  RH  050%=      5-min Rain = 0
KPA1 120059Z 00010KT M05/M14 A3057 RMK A01 T10541143  RH  050%=      5-min Rain = 0
KPA1 120100Z 00009KT M06/M14 A3057 RMK A01 T10551142  RH  050%=      5-min Rain = 0
KPA1 120101Z 00010KT M06/M14 A3057 RMK A01 T10551141  RH  051%=      5-min Rain = 0
KPA1 120102Z 36010KT M06/M14 A3057 RMK A01 T10551141  RH  051%=      5-min Rain = 0
KPA1 120103Z 36009KT M06/M14 A3057 RMK A01 T10551141  RH  051%=      5-min Rain = 0
KPA1 120104Z 36009KT M06/M14 A3057 RMK A01 T10551142  RH  051%=      5-min Rain = 0
KPA1 120105Z 36010KT M06/M14 A3057 RMK A01 T10551141  RH  051%=      5-min Rain = 0
KPA1 120106Z 00011KT M06/M14 A3057 RMK A01 T10561141  RH  051%=      5-min Rain = 0
KPA1 120107Z 36012KT M06/M14 A3057 RMK A01 T10561142  RH  051%=      5-min Rain = 0
KPA1 120108Z 36011KT M06/M14 A3057 RMK A01 T10561141  RH  051%=      5-min Rain = 0
KPA1 120109Z 00012KT M06/M14 A3057 RMK A01 T10561141  RH  051%=      5-min Rain = 0
KPA1 120110Z 00011KT M06/M14 A3057 RMK A01 T10561141  RH  051%=      5-min Rain = 0
KPA1 120111Z 00009KT M06/M14 A3057 RMK A01 T10551141  RH  051%=      5-min Rain = 0
KPA1 120112Z 00010KT M06/M14 A3057 RMK A01 T10551141  RH  051%=      5-min Rain = 0
KPA1 120113Z 36012KT M06/M14 A3057 RMK A01 T10551141  RH  051%=      5-min Rain = 0
KPA1 120114Z 00011KT M06/M14 A3058 RMK A01 T10551142  RH  051%=      5-min Rain = 0
KPA1 120115Z 01010KT M06/M14 A3058 RMK A01 T10551141  RH  051%=      5-min Rain = 0
KPA1 120116Z 00009KT M06/M14 A3058 RMK A01 T10561141  RH  051%=      5-min Rain = 0
KPA1 120117Z 36009KT M06/M14 A3058 RMK A01 T10571140  RH  052%=      5-min Rain = 0
KPA1 120118Z 00010KT M06/M14 A3058 RMK A01 T10571141  RH  052%=      5-min Rain = 0
KPA1 120119Z 00009KT M06/M14 A3057 RMK A01 T10571141  RH  052%=      5-min Rain = 0
KPA1 120120Z 00008KT M06/M14 A3057 RMK A01 T10571140  RH  052%=      5-min Rain = 0
KPA1 120121Z 00011KT M06/M14 A3058 RMK A01 T10581140  RH  052%=      5-min Rain = 0
KPA1 120122Z 36011KT M06/M14 A3058 RMK A01 T10581141  RH  052%=      5-min Rain = 0
KPA1 120123Z 00012KT M06/M14 A3058 RMK A01 T10571141  RH  052%=      5-min Rain = 0
KPA1 120124Z 36010KT M06/M14 A3058 RMK A01 T10561140  RH  052%=      5-min Rain = 0
KPA1 120125Z 36011KT M06/M14 A3058 RMK A01 T10571141  RH  051%=      5-min Rain = 0
KPA1 120126Z 00011KT M06/M14 A3058 RMK A01 T10571142  RH  051%=      5-min Rain = 0
KPA1 120127Z 36009KT M06/M14 A3058 RMK A01 T10571141  RH  052%=      5-min Rain = 0
KPA1 120128Z 36011KT M06/M14 A3058 RMK A01 T10581141  RH  052%=      5-min Rain = 0
KPA1 120129Z 00010KT M06/M14 A3057 RMK A01 T10581140  RH  052%=      5-min Rain = 0
KPA1 120130Z 01011KT M06/M14 A3057 RMK A01 T10591141  RH  052%=      5-min Rain = 0
KPA1 120131Z 00010KT M06/M14 A3057 RMK A01 T10591141  RH  052%=      5-min Rain = 0
KPA1 120132Z 00009KT M06/M14 A3057 RMK A01 T10591140  RH  053%=      5-min Rain = 0
KPA1 120133Z 00010KT M06/M14 A3057 RMK A01 T10591140  RH  053%=      5-min Rain = 0
KPA1 120134Z 36011KT M06/M14 A3058 RMK A01 T10591141  RH  052%=      5-min Rain = 0
KPA1 120135Z 00010KT M06/M14 A3058 RMK A01 T10591141  RH  052%=      5-min Rain = 0
KPA1 120136Z 00009KT M06/M14 A3058 RMK A01 T10591141  RH  052%=      5-min Rain = 0
KPA1 120137Z 00010KT M06/M14 A3058 RMK A01 T10591140  RH  053%=      5-min Rain = 0
KPA1 120138Z 01012KT M06/M14 A3058 RMK A01 T10591141  RH  053%=      5-min Rain = 0
KPA1 120139Z 36011KT M06/M14 A3058 RMK A01 T10591141  RH  052%=      5-min Rain = 0
KPA1 120140Z 36011KT M06/M14 A3058 RMK A01 T10591141  RH  052%=      5-min Rain = 0
KPA1 120141Z 36010KT M06/M14 A3058 RMK A01 T10591141  RH  052%=      5-min Rain = 0
KPA1 120142Z 00010KT M06/M14 A3058 RMK A01 T10601141  RH  053%=      5-min Rain = 0
KPA1 120143Z 36012KT M06/M14 A3058 RMK A01 T10601140  RH  053%=      5-min Rain = 0
KPA1 120144Z 00010KT M06/M14 A3058 RMK A01 T10601141  RH  053%=      5-min Rain = 0
KPA1 120145Z 36008KT M06/M14 A3058 RMK A01 T10601141  RH  053%=      5-min Rain = 0
KPA1 120146Z 36010G15KT M06/M14 A3059 RMK A01 T10601140  RH  053%=      5-min Rain = 0
KPA1 120147Z 36013KT M06/M14 A3059 RMK A01 T10611140  RH  053%=      5-min Rain = 0
KPA1 120148Z 00010KT M06/M14 A3059 RMK A01 T10611141  RH  053%=      5-min Rain = 0
KPA1 120149Z 01010KT M06/M14 A3059 RMK A01 T10611140  RH  053%=      5-min Rain = 0
KPA1 120150Z 00010KT M06/M14 A3059 RMK A01 T10611140  RH  053%=      5-min Rain = 0
KPA1 120151Z 01009KT M06/M14 A3059 RMK A01 T10611140  RH  053%=      5-min Rain = 0
KPA1 120152Z 01009KT M06/M14 A3059 RMK A01 T10611140  RH  054%=      5-min Rain = 0
KPA1 120153Z 01010KT M06/M14 A3059 RMK A01 T10611140  RH  054%=      5-min Rain = 0
KPA1 120154Z 00007KT M06/M14 A3059 RMK A01 T10611140  RH  054%=      5-min Rain = 0
KPA1 120155Z 01009KT M06/M14 A3059 RMK A01 T10621139  RH  054%=      5-min Rain = 0
KPA1 120156Z 01011KT M06/M14 A3059 RMK A01 T10621139  RH  055%=      5-min Rain = 0
KPA1 120157Z 00010KT M06/M14 A3059 RMK A01 T10621140  RH  054%=      5-min Rain = 0
KPA1 120158Z 01011KT M06/M14 A3059 RMK A01 T10621140  RH  054%=      5-min Rain = 0
KPA1 120159Z 00010KT M06/M14 A3059 RMK A01 T10621140  RH  054%=      5-min Rain = 0
KPA1 120200Z 01013KT M06/M14 A3059 RMK A01 T10621140  RH  054%=      5-min Rain = 0
KPA1 120201Z 00011KT M06/M14 A3059 RMK A01 T10621141  RH  054%=      5-min Rain = 0
KPA1 120202Z 00011KT M06/M14 A3059 RMK A01 T10621141  RH  054%=      5-min Rain = 0
KPA1 120203Z 00009KT M06/M14 A3059 RMK A01 T10621140  RH  054%=      5-min Rain = 0
KPA1 120204Z 36008KT M06/M14 A306 RMK A01 T10621140  RH  054%=      5-min Rain = 0
KPA1 120205Z 36008KT M06/M14 A306 RMK A01 T10631140  RH  054%=      5-min Rain = 0
KPA1 120206Z 36008KT M06/M14 A306 RMK A01 T10631140  RH  054%=      5-min Rain = 0
KPA1 120207Z 00010KT M06/M14 A306 RMK A01 T10631140  RH  055%=      5-min Rain = 0
KPA1 120208Z 36012KT M06/M14 A3059 RMK A01 T10631140  RH  054%=      5-min Rain = 0
KPA1 120209Z 36011KT M06/M14 A3059 RMK A01 T10631141  RH  054%=      5-min Rain = 0
KPA1 120210Z 00011KT M06/M14 A3059 RMK A01 T10631141  RH  054%=      5-min Rain = 0
KPA1 120211Z 36010KT M06/M14 A3059 RMK A01 T10631142  RH  054%=      5-min Rain = 0
KPA1 120212Z 00011KT M06/M14 A306 RMK A01 T10631142  RH  053%=      5-min Rain = 0
KPA1 120213Z 00011KT M06/M14 A306 RMK A01 T10631142  RH  053%=      5-min Rain = 0
KPA1 120214Z 36009KT M06/M14 A306 RMK A01 T10631142  RH  054%=      5-min Rain = 0
KPA1 120215Z 00009KT M06/M14 A306 RMK A01 T10641142  RH  054%=      5-min Rain = 0
KPA1 120216Z 00010KT M07/M14 A306 RMK A01 T10651142  RH  054%=      5-min Rain = 0
KPA1 120217Z 00011KT M07/M14 A306 RMK A01 T10651142  RH  054%=      5-min Rain = 0
KPA1 120218Z 00010KT M07/M14 A306 RMK A01 T10651142  RH  054%=      5-min Rain = 0
KPA1 120219Z 00011KT M07/M14 A306 RMK A01 T10651142  RH  054%=      5-min Rain = 0
KPA1 120220Z 36010KT M07/M14 A306 RMK A01 T10651141  RH  055%=      5-min Rain = 0
KPA1 120221Z 00011KT M07/M14 A3059 RMK A01 T10651141  RH  055%=      5-min Rain = 0
KPA1 120222Z 00010KT M07/M14 A3059 RMK A01 T10651141  RH  055%=      5-min Rain = 0
KPA1 120223Z 00011KT M07/M14 A3059 RMK A01 T10651141  RH  055%=      5-min Rain = 0
KPA1 120224Z 00011KT M07/M14 A306 RMK A01 T10651141  RH  055%=      5-min Rain = 0
KPA1 120225Z 36009KT M07/M14 A306 RMK A01 T10651141  RH  055%=      5-min Rain = 0
KPA1 120226Z 00008KT M07/M14 A306 RMK A01 T10651141  RH  055%=      5-min Rain = 0
KPA1 120227Z 35011KT M07/M14 A306 RMK A01 T10661141  RH  055%=      5-min Rain = 0
KPA1 120228Z 36011KT M07/M14 A306 RMK A01 T10661142  RH  055%=      5-min Rain = 0
KPA1 120229Z 00012KT M07/M14 A306 RMK A01 T10661142  RH  055%=      5-min Rain = 0
KPA1 120230Z 36009KT M07/M14 A306 RMK A01 T10651141  RH  055%=      5-min Rain = 0
KPA1 120231Z 36009KT M07/M14 A306 RMK A01 T10651141  RH  055%=      5-min Rain = 0
KPA1 120232Z 36011KT M07/M14 A306 RMK A01 T10661142  RH  055%=      5-min Rain = 0
KPA1 120233Z 36010KT M07/M14 A306 RMK A01 T10661142  RH  055%=      5-min Rain = 0
KPA1 120234Z 36009KT M07/M14 A306 RMK A01 T10661142  RH  055%=      5-min Rain = 0
KPA1 120235Z 36012KT M07/M14 A306 RMK A01 T10661142  RH  055%=      5-min Rain = 0
KPA1 120236Z 01011KT M07/M14 A306 RMK A01 T10671142  RH  055%=      5-min Rain = 0
KPA1 120237Z 01010KT M07/M14 A306 RMK A01 T10661142  RH  055%=      5-min Rain = 0
KPA1 120238Z 01009KT M07/M14 A306 RMK A01 T10661142  RH  055%=      5-min Rain = 0
KPA1 120239Z 01008KT M07/M14 A306 RMK A01 T10661142  RH  055%=      5-min Rain = 0
KPA1 120240Z 01011KT M07/M14 A306 RMK A01 T10661142  RH  055%=      5-min Rain = 0
KPA1 120241Z 01010KT M07/M14 A3061 RMK A01 T10661142  RH  055%=      5-min Rain = 0
KPA1 120242Z 01011KT M07/M14 A3061 RMK A01 T10661142  RH  055%=      5-min Rain = 0
KPA1 120243Z 01009KT M07/M14 A3061 RMK A01 T10661142  RH  055%=      5-min Rain = 0
KPA1 120244Z 00008KT M07/M14 A3061 RMK A01 T10661142  RH  055%=      5-min Rain = 0
KPA1 120245Z 01010KT M07/M14 A3061 RMK A01 T10671142  RH  055%=      5-min Rain = 0
KPA1 120246Z 36009KT M07/M14 A3061 RMK A01 T10681142  RH  055%=      5-min Rain = 0
KPA1 120247Z 36010KT M07/M14 A3061 RMK A01 T10681142  RH  056%=      5-min Rain = 0
KPA1 120248Z 00009KT M07/M14 A3061 RMK A01 T10671142  RH  056%=      5-min Rain = 0
KPA1 120249Z 00009KT M07/M14 A3061 RMK A01 T10671141  RH  056%=      5-min Rain = 0
KPA1 120250Z 01008KT M07/M14 A3061 RMK A01 T10671141  RH  056%=      5-min Rain = 0
KPA1 120251Z 01010KT M07/M14 A3061 RMK A01 T10681141  RH  056%=      5-min Rain = 0
KPA1 120252Z 01010KT M07/M14 A3061 RMK A01 T10681141  RH  056%=      5-min Rain = 0
KPA1 120253Z 01009KT M07/M14 A3061 RMK A01 T10691141  RH  056%=      5-min Rain = 0
KPA1 120254Z 02009KT M07/M14 A3061 RMK A01 T10691142  RH  056%=      5-min Rain = 0
KPA1 120255Z 02010KT M07/M14 A3061 RMK A01 T10691142  RH  056%=      5-min Rain = 0
KPA1 120256Z 02009KT M07/M14 A3061 RMK A01 T10691142  RH  056%=      5-min Rain = 0
KPA1 120257Z 01009KT M07/M14 A3061 RMK A01 T10701142  RH  057%=      5-min Rain = 0
KPA1 120258Z 02010KT M07/M14 A3061 RMK A01 T10711142  RH  057%=      5-min Rain = 0
KPA1 120259Z 01008KT M07/M14 A3061 RMK A01 T10711142  RH  057%=      5-min Rain = 0
KPA1 120300Z 01010KT M07/M14 A3061 RMK A01 T10711142  RH  057%=      5-min Rain = 0
KPA1 120301Z 01009KT M07/M14 A3061 RMK A01 T10721142  RH  057%=      5-min Rain = 0
KPA1 120302Z 01010KT M07/M14 A3061 RMK A01 T10721142  RH  057%=      5-min Rain = 0
KPA1 120303Z 01010KT M07/M14 A3061 RMK A01 T10721142  RH  057%=      5-min Rain = 0
KPA1 120304Z 01010KT M07/M14 A3061 RMK A01 T10721141  RH  057%=      5-min Rain = 0
KPA1 120305Z 01010KT M07/M14 A3061 RMK A01 T10721142  RH  057%=      5-min Rain = 0
KPA1 120306Z 01010KT M07/M14 A3061 RMK A01 T10721142  RH  057%=      5-min Rain = 0
KPA1 120307Z 01012KT M07/M14 A306 RMK A01 T10711142  RH  057%=      5-min Rain = 0
KPA1 120308Z 01010KT M07/M14 A306 RMK A01 T10711142  RH  057%=      5-min Rain = 0
KPA1 120309Z 01011KT M07/M14 A306 RMK A01 T10711142  RH  057%=      5-min Rain = 0
KPA1 120310Z 01012KT M07/M14 A306 RMK A01 T10721143  RH  057%=      5-min Rain = 0
KPA1 120311Z 01010KT M07/M14 A306 RMK A01 T10721143  RH  057%=      5-min Rain = 0
KPA1 120312Z 01012KT M07/M14 A3061 RMK A01 T10721143  RH  057%=      5-min Rain = 0
KPA1 120313Z 01012KT M07/M14 A3061 RMK A01 T10721143  RH  057%=      5-min Rain = 0
KPA1 120314Z 01012KT M07/M14 A3061 RMK A01 T10721144  RH  056%=      5-min Rain = 0
KPA1 120315Z 00012KT M07/M14 A3061 RMK A01 T10721144  RH  056%=      5-min Rain = 0
KPA1 120316Z 01013KT M07/M15 A306 RMK A01 T10721145  RH  056%=      5-min Rain = 0
KPA1 120317Z 01011G16KT M07/M15 A306 RMK A01 T10721145  RH  056%=      5-min Rain = 0
KPA1 120318Z 01013KT M07/M15 A3061 RMK A01 T10721145  RH  056%=      5-min Rain = 0
KPA1 120319Z 01013KT M07/M15 A3061 RMK A01 T10721145  RH  056%=      5-min Rain = 0
KPA1 120320Z 01011KT M07/M15 A3061 RMK A01 T10721146  RH  056%=      5-min Rain = 0
KPA1 120321Z 01011KT M07/M15 A306 RMK A01 T10731146  RH  056%=      5-min Rain = 0
KPA1 120322Z 01012KT M07/M15 A306 RMK A01 T10731145  RH  056%=      5-min Rain = 0
KPA1 120323Z 01013KT M07/M15 A306 RMK A01 T10741145  RH  057%=      5-min Rain = 0
KPA1 120324Z 01013KT M07/M15 A306 RMK A01 T10741146  RH  056%=      5-min Rain = 0
KPA1 120325Z 01012KT M07/M15 A306 RMK A01 T10741146  RH  056%=      5-min Rain = 0
KPA1 120326Z 01011KT M07/M15 A306 RMK A01 T10731146  RH  056%=      5-min Rain = 0
KPA1 120327Z 01013KT M07/M15 A306 RMK A01 T10741146  RH  057%=      5-min Rain = 0
KPA1 120328Z 00011KT M08/M15 A306 RMK A01 T10751146  RH  057%=      5-min Rain = 0
KPA1 120329Z 00011KT M07/M15 A306 RMK A01 T10741145  RH  057%=      5-min Rain = 0
KPA1 120330Z 01010KT M07/M14 A306 RMK A01 T10741144  RH  057%=      5-min Rain = 0
KPA1 120331Z 01009KT M08/M14 A306 RMK A01 T10751144  RH  058%=      5-min Rain = 0
KPA1 120332Z 00009KT M08/M14 A306 RMK A01 T10751144  RH  058%=      5-min Rain = 0
KPA1 120333Z 00010KT M08/M14 A306 RMK A01 T10761143  RH  059%=      5-min Rain = 0
KPA1 120334Z 00010KT M08/M14 A306 RMK A01 T10771143  RH  059%=      5-min Rain = 0
KPA1 120335Z 36009KT M08/M14 A306 RMK A01 T10771143  RH  059%=      5-min Rain = 0
KPA1 120336Z 00010KT M08/M14 A306 RMK A01 T10771143  RH  059%=      5-min Rain = 0
KPA1 120337Z 01009KT M08/M14 A306 RMK A01 T10771143  RH  059%=      5-min Rain = 0
KPA1 120338Z 01010KT M08/M14 A306 RMK A01 T10771143  RH  059%=      5-min Rain = 0
KPA1 120339Z 36009KT M08/M14 A306 RMK A01 T10771143  RH  059%=      5-min Rain = 0
KPA1 120340Z 00010KT M08/M14 A306 RMK A01 T10771144  RH  059%=      5-min Rain = 0
KPA1 120341Z 00010KT M08/M14 A306 RMK A01 T10771144  RH  059%=      5-min Rain = 0
KPA1 120342Z 00010KT M08/M14 A306 RMK A01 T10771144  RH  059%=      5-min Rain = 0
KPA1 120343Z 00010KT M08/M14 A306 RMK A01 T10771144  RH  059%=      5-min Rain = 0
KPA1 120344Z 35012KT M08/M14 A306 RMK A01 T10771144  RH  059%=      5-min Rain = 0
KPA1 120345Z 36010KT M08/M14 A306 RMK A01 T10771144  RH  059%=      5-min Rain = 0
KPA1 120346Z 00008KT M08/M15 A306 RMK A01 T10771145  RH  059%=      5-min Rain = 0
KPA1 120347Z 36009KT M08/M14 A306 RMK A01 T10781144  RH  059%=      5-min Rain = 0
KPA1 120348Z 00009KT M08/M14 A306 RMK A01 T10781144  RH  059%=      5-min Rain = 0
KPA1 120349Z 01008KT M08/M14 A306 RMK A01 T10791143  RH  060%=      5-min Rain = 0
KPA1 120350Z 00007KT M08/M14 A3061 RMK A01 T10791143  RH  060%=      5-min Rain = 0
KPA1 120351Z 01009KT M08/M14 A3061 RMK A01 T10791143  RH  060%=      5-min Rain = 0
KPA1 120352Z 00010KT M08/M14 A3061 RMK A01 T10791143  RH  060%=      5-min Rain = 0
KPA1 120353Z 01009KT M08/M14 A3061 RMK A01 T10791143  RH  060%=      5-min Rain = 0
KPA1 120354Z 01009KT M08/M14 A3061 RMK A01 T10791143  RH  060%=      5-min Rain = 0
KPA1 120355Z 01010KT M08/M14 A3061 RMK A01 T10781144  RH  059%=      5-min Rain = 0
KPA1 120356Z 01009KT M08/M14 A3061 RMK A01 T10781144  RH  059%=      5-min Rain = 0
KPA1 120357Z 01009KT M08/M14 A3061 RMK A01 T10781143  RH  060%=      5-min Rain = 0
KPA1 120358Z 01010KT M08/M14 A3061 RMK A01 T10791144  RH  060%=      5-min Rain = 0
KPA1 120359Z 01009KT M08/M14 A3061 RMK A01 T10791144  RH  060%=      5-min Rain = 0
KPA1 120400Z 01010KT M08/M14 A306 RMK A01 T10791144  RH  060%=      5-min Rain = 0
KPA1 120401Z 01008KT M08/M14 A306 RMK A01 T10791144  RH  060%=      5-min Rain = 0
KPA1 120402Z 01011KT M08/M14 A306 RMK A01 T10791143  RH  060%=      5-min Rain = 0
KPA1 120403Z 01010KT M08/M14 A306 RMK A01 T10791143  RH  060%=      5-min Rain = 0
KPA1 120404Z 36008KT M08/M14 A306 RMK A01 T10801143  RH  060%=      5-min Rain = 0
KPA1 120405Z 01012KT M08/M14 A306 RMK A01 T10801143  RH  060%=      5-min Rain = 0
KPA1 120406Z 00009KT M08/M14 A306 RMK A01 T10801143  RH  061%=      5-min Rain = 0
KPA1 120407Z 01009KT M08/M14 A306 RMK A01 T10801143  RH  060%=      5-min Rain = 0
KPA1 120408Z 00009KT M08/M14 A306 RMK A01 T10801143  RH  061%=      5-min Rain = 0
KPA1 120409Z 01010KT M08/M14 A306 RMK A01 T10811144  RH  061%=      5-min Rain = 0
KPA1 120410Z 01008KT M08/M14 A306 RMK A01 T10811143  RH  061%=      5-min Rain = 0
KPA1 120411Z 01011KT M08/M14 A306 RMK A01 T10811143  RH  061%=      5-min Rain = 0
KPA1 120412Z 01011KT M08/M14 A306 RMK A01 T10811143  RH  061%=      5-min Rain = 0
KPA1 120413Z 01009KT M08/M14 A306 RMK A01 T10811143  RH  061%=      5-min Rain = 0
KPA1 120414Z 01009KT M08/M14 A306 RMK A01 T10811143  RH  061%=      5-min Rain = 0
KPA1 120415Z 00011KT M08/M14 A306 RMK A01 T10811143  RH  061%=      5-min Rain = 0
KPA1 120416Z 00011G16KT M08/M14 A306 RMK A01 T10811143  RH  061%=      5-min Rain = 0
KPA1 120417Z 00011G16KT M08/M14 A306 RMK A01 T10811143  RH  061%=      5-min Rain = 0
KPA1 120418Z 00011KT M08/M14 A306 RMK A01 T10811144  RH  061%=      5-min Rain = 0
KPA1 120419Z 36008KT M08/M14 A306 RMK A01 T10801144  RH  060%=      5-min Rain = 0
KPA1 120420Z 36009KT M08/M14 A306 RMK A01 T10811144  RH  061%=      5-min Rain = 0
KPA1 120421Z 35011KT M08/M14 A306 RMK A01 T10821144  RH  061%=      5-min Rain = 0
KPA1 120422Z 36011KT M08/M14 A306 RMK A01 T10821143  RH  061%=      5-min Rain = 0
KPA1 120423Z 36012KT M08/M14 A306 RMK A01 T10831144  RH  061%=      5-min Rain = 0
KPA1 120424Z 36011KT M08/M14 A306 RMK A01 T10821144  RH  061%=      5-min Rain = 0
KPA1 120425Z 01011KT M08/M14 A306 RMK A01 T10821144  RH  061%=      5-min Rain = 0
KPA1 120426Z 00012KT M08/M14 A306 RMK A01 T10821144  RH  061%=      5-min Rain = 0
KPA1 120427Z 00011KT M08/M14 A306 RMK A01 T10821144  RH  061%=      5-min Rain = 0
KPA1 120428Z 00010KT M08/M14 A306 RMK A01 T10821144  RH  061%=      5-min Rain = 0
KPA1 120429Z 01010KT M08/M14 A306 RMK A01 T10821144  RH  061%=      5-min Rain = 0
KPA1 120430Z 01011KT M08/M14 A306 RMK A01 T10821144  RH  061%=      5-min Rain = 0
KPA1 120431Z 01009KT M08/M14 A306 RMK A01 T10821144  RH  061%=      5-min Rain = 0
KPA1 120432Z 01010KT M08/M14 A306 RMK A01 T10821144  RH  061%=      5-min Rain = 0
KPA1 120433Z 00009KT M08/M14 A306 RMK A01 T10821144  RH  061%=      5-min Rain = 0
KPA1 120434Z 00009KT M08/M14 A306 RMK A01 T10831143  RH  062%=      5-min Rain = 0
KPA1 120435Z 01010KT M08/M14 A306 RMK A01 T10831143  RH  062%=      5-min Rain = 0
KPA1 120436Z 01011KT M08/M14 A306 RMK A01 T10841144  RH  062%=      5-min Rain = 0
KPA1 120437Z 01013G18KT M08/M14 A306 RMK A01 T10841144  RH  062%=      5-min Rain = 0
KPA1 120438Z 01011KT M08/M14 A306 RMK A01 T10831144  RH  061%=      5-min Rain = 0
KPA1 120439Z 01010KT M08/M15 A306 RMK A01 T10831145  RH  061%=      5-min Rain = 0
KPA1 120440Z 01013KT M08/M15 A306 RMK A01 T10831145  RH  061%=      5-min Rain = 0
KPA1 120441Z 01011KT M08/M15 A306 RMK A01 T10841146  RH  061%=      5-min Rain = 0
KPA1 120442Z 01012KT M08/M15 A306 RMK A01 T10831145  RH  061%=      5-min Rain = 0
KPA1 120443Z 01015KT M08/M15 A306 RMK A01 T10841145  RH  061%=      5-min Rain = 0
KPA1 120444Z 01012KT M08/M15 A306 RMK A01 T10841146  RH  061%=      5-min Rain = 0
KPA1 120445Z 00011KT M08/M15 A306 RMK A01 T10841146  RH  061%=      5-min Rain = 0
KPA1 120446Z 00011KT M08/M15 A306 RMK A01 T10831145  RH  061%=      5-min Rain = 0
KPA1 120447Z 00012KT M08/M15 A306 RMK A01 T10841145  RH  062%=      5-min Rain = 0
KPA1 120448Z 01012KT M08/M15 A306 RMK A01 T10841145  RH  062%=      5-min Rain = 0
KPA1 120449Z 00012G17KT M08/M15 A306 RMK A01 T10841145  RH  062%=      5-min Rain = 0
KPA1 120450Z 01013KT M08/M15 A306 RMK A01 T10841145  RH  062%=      5-min Rain = 0
KPA1 120451Z 01011KT M08/M15 A306 RMK A01 T10841145  RH  061%=      5-min Rain = 0
KPA1 120452Z 01011KT M08/M15 A306 RMK A01 T10841145  RH  061%=      5-min Rain = 0
KPA1 120453Z 01012KT M08/M15 A306 RMK A01 T10841145  RH  061%=      5-min Rain = 0
KPA1 120454Z 01011KT M09/M15 A306 RMK A01 T10851145  RH  062%=      5-min Rain = 0
KPA1 120455Z 01010KT M09/M15 A306 RMK A01 T10851145  RH  062%=      5-min Rain = 0
KPA1 120456Z 01012KT M09/M15 A306 RMK A01 T10861146  RH  062%=      5-min Rain = 0
KPA1 120457Z 01014KT M09/M15 A306 RMK A01 T10861146  RH  062%=      5-min Rain = 0
KPA1 120458Z 01014KT M09/M15 A306 RMK A01 T10861146  RH  062%=      5-min Rain = 0
KPA1 120459Z 01013KT M09/M15 A306 RMK A01 T10861146  RH  062%=      5-min Rain = 0
KPA1 120500Z 01012KT M09/M15 A306 RMK A01 T10861147  RH  061%=      5-min Rain = 0
KPA1 120501Z 01013KT M09/M15 A306 RMK A01 T10861147  RH  061%=      5-min Rain = 0
KPA1 120502Z 01013KT M09/M15 A306 RMK A01 T10861147  RH  061%=      5-min Rain = 0
KPA1 120503Z 01012KT M09/M15 A306 RMK A01 T10861146  RH  062%=      5-min Rain = 0
KPA1 120504Z 01011KT M09/M15 A306 RMK A01 T10871146  RH  062%=      5-min Rain = 0
KPA1 120505Z 01012KT M09/M15 A306 RMK A01 T10881146  RH  063%=      5-min Rain = 0
KPA1 120506Z 01013KT M09/M15 A306 RMK A01 T10881146  RH  063%=      5-min Rain = 0
KPA1 120507Z 01011KT M09/M15 A306 RMK A01 T10881146  RH  063%=      5-min Rain = 0
KPA1 120508Z 01011KT M09/M15 A306 RMK A01 T10881146  RH  063%=      5-min Rain = 0
KPA1 120509Z 02011KT M09/M15 A306 RMK A01 T10881146  RH  063%=      5-min Rain = 0
KPA1 120510Z 02012KT M09/M15 A306 RMK A01 T10881147  RH  063%=      5-min Rain = 0
KPA1 120511Z 01011KT M09/M15 A306 RMK A01 T10881146  RH  063%=      5-min Rain = 0
KPA1 120512Z 01009KT M09/M15 A306 RMK A01 T10891146  RH  063%=      5-min Rain = 0
KPA1 120513Z 01010KT M09/M15 A306 RMK A01 T10891146  RH  064%=      5-min Rain = 0
KPA1 120514Z 01013KT M09/M15 A306 RMK A01 T10901146  RH  064%=      5-min Rain = 0
KPA1 120515Z 01011KT M09/M15 A306 RMK A01 T10901146  RH  064%=      5-min Rain = 0
KPA1 120516Z 01009KT M09/M15 A306 RMK A01 T10891145  RH  064%=      5-min Rain = 0
KPA1 120517Z 01010KT M09/M15 A306 RMK A01 T10901146  RH  064%=      5-min Rain = 0
KPA1 120518Z 01012KT M09/M15 A306 RMK A01 T10911145  RH  064%=      5-min Rain = 0
KPA1 120519Z 01012KT M09/M15 A306 RMK A01 T10901145  RH  064%=      5-min Rain = 0
KPA1 120520Z 01013KT M09/M15 A306 RMK A01 T10901145  RH  064%=      5-min Rain = 0
KPA1 120521Z 01011KT M09/M15 A306 RMK A01 T10891146  RH  064%=      5-min Rain = 0
KPA1 120522Z 01011KT M09/M15 A306 RMK A01 T10891146  RH  063%=      5-min Rain = 0
KPA1 120523Z 00010KT M09/M15 A306 RMK A01 T10901146  RH  064%=      5-min Rain = 0
KPA1 120524Z 00010KT M09/M15 A306 RMK A01 T10901145  RH  064%=      5-min Rain = 0
KPA1 120525Z 00012KT M09/M15 A306 RMK A01 T10901145  RH  064%=      5-min Rain = 0
KPA1 120526Z 00011KT M09/M15 A306 RMK A01 T10901145  RH  064%=      5-min Rain = 0
KPA1 120527Z 01012KT M09/M15 A306 RMK A01 T10891145  RH  064%=      5-min Rain = 0
KPA1 120528Z 01011KT M09/M15 A306 RMK A01 T10891145  RH  064%=      5-min Rain = 0
KPA1 120529Z 01011KT M09/M15 A306 RMK A01 T10891145  RH  064%=      5-min Rain = 0
KPA1 120530Z 01010KT M09/M15 A306 RMK A01 T10891146  RH  064%=      5-min Rain = 0
KPA1 120531Z 01010KT M09/M15 A306 RMK A01 T10891146  RH  064%=      5-min Rain = 0
KPA1 120532Z 01012KT M09/M15 A306 RMK A01 T10891146  RH  064%=      5-min Rain = 0
KPA1 120533Z 01010KT M09/M15 A306 RMK A01 T10891147  RH  063%=      5-min Rain = 0
KPA1 120534Z 02013KT M09/M15 A306 RMK A01 T10891147  RH  063%=      5-min Rain = 0
KPA1 120535Z 02011KT M09/M15 A306 RMK A01 T10891148  RH  063%=      5-min Rain = 0
KPA1 120536Z 02011KT M09/M15 A306 RMK A01 T10901148  RH  063%=      5-min Rain = 0
KPA1 120537Z 02013KT M09/M15 A306 RMK A01 T10901148  RH  063%=      5-min Rain = 0
KPA1 120538Z 01013KT M09/M15 A306 RMK A01 T10911149  RH  063%=      5-min Rain = 0
KPA1 120539Z 01012KT M09/M15 A306 RMK A01 T10911150  RH  062%=      5-min Rain = 0
KPA1 120540Z 01012KT M09/M15 A306 RMK A01 T10911149  RH  062%=      5-min Rain = 0
KPA1 120541Z 01010KT M09/M15 A306 RMK A01 T10911149  RH  062%=      5-min Rain = 0
KPA1 120542Z 01012KT M09/M15 A306 RMK A01 T10921150  RH  063%=      5-min Rain = 0
KPA1 120543Z 02012KT M09/M15 A306 RMK A01 T10921150  RH  063%=      5-min Rain = 0
KPA1 120544Z 01013KT M09/M15 A306 RMK A01 T10911150  RH  063%=      5-min Rain = 0
KPA1 120545Z 00013KT M09/M15 A306 RMK A01 T10911150  RH  062%=      5-min Rain = 0
KPA1 120546Z 01010KT M09/M15 A306 RMK A01 T10911150  RH  063%=      5-min Rain = 0
KPA1 120547Z 01011KT M09/M15 A306 RMK A01 T10921150  RH  063%=      5-min Rain = 0
KPA1 120548Z 01012KT M09/M15 A306 RMK A01 T10921150  RH  063%=      5-min Rain = 0
KPA1 120549Z 01012KT M09/M15 A3061 RMK A01 T10921150  RH  063%=      5-min Rain = 0
KPA1 120550Z 01010KT M09/M15 A3061 RMK A01 T10921150  RH  063%=      5-min Rain = 0
KPA1 120551Z 01013KT M09/M15 A3061 RMK A01 T10921149  RH  063%=      5-min Rain = 0
KPA1 120552Z 01013KT M09/M15 A3061 RMK A01 T10931150  RH  063%=      5-min Rain = 0
KPA1 120553Z 01011KT M09/M15 A3061 RMK A01 T10931150  RH  063%=      5-min Rain = 0
KPA1 120554Z 01011KT M09/M15 A306 RMK A01 T10931150  RH  063%=      5-min Rain = 0
KPA1 120555Z 01012KT M09/M15 A306 RMK A01 T10931150  RH  063%=      5-min Rain = 0
KPA1 120556Z 01011KT M09/M15 A306 RMK A01 T10931150  RH  063%=      5-min Rain = 0
KPA1 120557Z 01012KT M09/M15 A306 RMK A01 T10941150  RH  063%=      5-min Rain = 0
KPA1 120558Z 01012KT M09/M15 A306 RMK A01 T10941151  RH  063%=      5-min Rain = 0
KPA1 120559Z 01013KT M09/M15 A306 RMK A01 T10941150  RH  063%=      5-min Rain = 0

Page generated in 0.082 seconds.